<?xml version="1.0" encoding="UTF-8" standalone="no" ?>
<gpx xmlns="http://www.topografix.com/GPX/1/1" xmlns:xsi="http://www.w3.org/2001/XMLSchema-instance" xsi:schemaLocation="http://www.topografix.com/GPX/1/1 http://www.topografix.com/GPX/1/1/gpx.xsd" version="1.1" creator="VisuGPX - https://www.visugpx.com">
  <metadata>
    <name>Tour de France 2019</name>
    <desc><![CDATA[4272km en 2 mois en tandem avec notre petit chien dans le panier avant]]></desc>
  </metadata>
  <trk>
    <name><![CDATA[Tracé 20191106-091041]]></name>
    <trkseg>
      <trkpt lat="46.31897" lon="-0.99193">
        <ele>1.502</ele>
        <time>2019-11-06T08:10:53Z</time>
      </trkpt>
      <trkpt lat="46.31904" lon="-0.99216">
        <ele>1.16</ele>
        <time>2019-11-06T08:14:59Z</time>
      </trkpt>
      <trkpt lat="46.31844" lon="-0.99221">
        <ele>5.475</ele>
        <time>2019-11-06T08:15:47Z</time>
      </trkpt>
      <trkpt lat="46.31712" lon="-0.99181">
        <ele>1.362</ele>
        <time>2019-11-06T08:16:17Z</time>
      </trkpt>
      <trkpt lat="46.31554" lon="-0.9913">
        <ele>0.555</ele>
        <time>2019-11-06T08:16:50Z</time>
      </trkpt>
      <trkpt lat="46.3142" lon="-0.99107">
        <ele>0.462</ele>
        <time>2019-11-06T08:17:20Z</time>
      </trkpt>
      <trkpt lat="46.31258" lon="-0.99142">
        <ele>1.961</ele>
        <time>2019-11-06T08:17:53Z</time>
      </trkpt>
      <trkpt lat="46.31121" lon="-0.99169">
        <ele>8.616</ele>
        <time>2019-11-06T08:18:26Z</time>
      </trkpt>
      <trkpt lat="46.31021" lon="-0.99207">
        <ele>13.033</ele>
        <time>2019-11-06T08:18:56Z</time>
      </trkpt>
      <trkpt lat="46.3102" lon="-0.992">
        <ele>14.559</ele>
        <time>2019-11-06T08:21:44Z</time>
      </trkpt>
      <trkpt lat="46.31024" lon="-0.99264">
        <ele>13.69</ele>
        <time>2019-11-06T08:23:32Z</time>
      </trkpt>
      <trkpt lat="46.31025" lon="-0.99408">
        <ele>16.272</ele>
        <time>2019-11-06T08:24:05Z</time>
      </trkpt>
      <trkpt lat="46.31099" lon="-0.99399">
        <ele>18.074</ele>
        <time>2019-11-06T08:24:56Z</time>
      </trkpt>
      <trkpt lat="46.31179" lon="-0.99496">
        <ele>4.056</ele>
        <time>2019-11-06T08:25:26Z</time>
      </trkpt>
      <trkpt lat="46.31268" lon="-0.99636">
        <ele>1.564</ele>
        <time>2019-11-06T08:25:59Z</time>
      </trkpt>
      <trkpt lat="46.31214" lon="-0.99805">
        <ele>3.697</ele>
        <time>2019-11-06T08:26:32Z</time>
      </trkpt>
      <trkpt lat="46.31265" lon="-0.99959">
        <ele>2.707</ele>
        <time>2019-11-06T08:27:02Z</time>
      </trkpt>
      <trkpt lat="46.31339" lon="-1.00114">
        <ele>7.037</ele>
        <time>2019-11-06T08:27:35Z</time>
      </trkpt>
      <trkpt lat="46.3139" lon="-1.00277">
        <ele>7.046</ele>
        <time>2019-11-06T08:28:05Z</time>
      </trkpt>
      <trkpt lat="46.31432" lon="-1.00439">
        <ele>4.827</ele>
        <time>2019-11-06T08:28:38Z</time>
      </trkpt>
      <trkpt lat="46.31469" lon="-1.00576">
        <ele>3.277</ele>
        <time>2019-11-06T08:29:14Z</time>
      </trkpt>
      <trkpt lat="46.31477" lon="-1.00743">
        <ele>3.296</ele>
        <time>2019-11-06T08:29:44Z</time>
      </trkpt>
      <trkpt lat="46.31445" lon="-1.00935">
        <ele>2.039</ele>
        <time>2019-11-06T08:30:17Z</time>
      </trkpt>
      <trkpt lat="46.31407" lon="-1.01125">
        <ele>3.77</ele>
        <time>2019-11-06T08:30:50Z</time>
      </trkpt>
      <trkpt lat="46.3139" lon="-1.01307">
        <ele>2.692</ele>
        <time>2019-11-06T08:31:20Z</time>
      </trkpt>
      <trkpt lat="46.31399" lon="-1.01512">
        <ele>1.682</ele>
        <time>2019-11-06T08:31:53Z</time>
      </trkpt>
      <trkpt lat="46.31411" lon="-1.01698">
        <ele>4</ele>
        <time>2019-11-06T08:32:23Z</time>
      </trkpt>
      <trkpt lat="46.31424" lon="-1.01905">
        <ele>1.645</ele>
        <time>2019-11-06T08:32:56Z</time>
      </trkpt>
      <trkpt lat="46.31435" lon="-1.02108">
        <ele>1.475</ele>
        <time>2019-11-06T08:33:29Z</time>
      </trkpt>
      <trkpt lat="46.31448" lon="-1.02295">
        <ele>3.559</ele>
        <time>2019-11-06T08:33:59Z</time>
      </trkpt>
      <trkpt lat="46.3146" lon="-1.02501">
        <ele>2.1</ele>
        <time>2019-11-06T08:34:32Z</time>
      </trkpt>
      <trkpt lat="46.31457" lon="-1.02688">
        <ele>0.969</ele>
        <time>2019-11-06T08:35:02Z</time>
      </trkpt>
      <trkpt lat="46.31485" lon="-1.02889">
        <ele>1.418</ele>
        <time>2019-11-06T08:35:35Z</time>
      </trkpt>
      <trkpt lat="46.31495" lon="-1.03091">
        <ele>1.336</ele>
        <time>2019-11-06T08:36:08Z</time>
      </trkpt>
      <trkpt lat="46.31508" lon="-1.03274">
        <ele>0.945</ele>
        <time>2019-11-06T08:36:38Z</time>
      </trkpt>
      <trkpt lat="46.31519" lon="-1.03471">
        <ele>2.6</ele>
        <time>2019-11-06T08:37:11Z</time>
      </trkpt>
      <trkpt lat="46.31531" lon="-1.03666">
        <ele>2.073</ele>
        <time>2019-11-06T08:37:44Z</time>
      </trkpt>
      <trkpt lat="46.31541" lon="-1.03835">
        <ele>1.099</ele>
        <time>2019-11-06T08:38:14Z</time>
      </trkpt>
      <trkpt lat="46.31554" lon="-1.04027">
        <ele>0.391</ele>
        <time>2019-11-06T08:38:47Z</time>
      </trkpt>
      <trkpt lat="46.31565" lon="-1.04199">
        <ele>1.806</ele>
        <time>2019-11-06T08:39:17Z</time>
      </trkpt>
      <trkpt lat="46.31576" lon="-1.04392">
        <ele>2.291</ele>
        <time>2019-11-06T08:39:50Z</time>
      </trkpt>
      <trkpt lat="46.31587" lon="-1.04573">
        <ele>1.183</ele>
        <time>2019-11-06T08:40:23Z</time>
      </trkpt>
      <trkpt lat="46.31599" lon="-1.04743">
        <ele>1.416</ele>
        <time>2019-11-06T08:40:53Z</time>
      </trkpt>
      <trkpt lat="46.31608" lon="-1.04931">
        <ele>3.1</ele>
        <time>2019-11-06T08:41:26Z</time>
      </trkpt>
      <trkpt lat="46.31621" lon="-1.05116">
        <ele>1.336</ele>
        <time>2019-11-06T08:41:59Z</time>
      </trkpt>
      <trkpt lat="46.31632" lon="-1.05283">
        <ele>0.14</ele>
        <time>2019-11-06T08:42:29Z</time>
      </trkpt>
      <trkpt lat="46.31645" lon="-1.05477">
        <ele>1.4</ele>
        <time>2019-11-06T08:43:02Z</time>
      </trkpt>
      <trkpt lat="46.31656" lon="-1.05648">
        <ele>3.365</ele>
        <time>2019-11-06T08:43:32Z</time>
      </trkpt>
      <trkpt lat="46.31666" lon="-1.05831">
        <ele>2.818</ele>
        <time>2019-11-06T08:44:05.001Z</time>
      </trkpt>
      <trkpt lat="46.31676" lon="-1.05995">
        <ele>1.11</ele>
        <time>2019-11-06T08:44:38.001Z</time>
      </trkpt>
      <trkpt lat="46.31685" lon="-1.06159">
        <ele>2.6</ele>
        <time>2019-11-06T08:45:08.001Z</time>
      </trkpt>
      <trkpt lat="46.31696" lon="-1.06333">
        <ele>0.958</ele>
        <time>2019-11-06T08:45:41.001Z</time>
      </trkpt>
      <trkpt lat="46.31707" lon="-1.06494">
        <ele>0.195</ele>
        <time>2019-11-06T08:46:11.001Z</time>
      </trkpt>
      <trkpt lat="46.31717" lon="-1.06672">
        <ele>1.7</ele>
        <time>2019-11-06T08:46:44.001Z</time>
      </trkpt>
      <trkpt lat="46.31727" lon="-1.06852">
        <ele>0.42</ele>
        <time>2019-11-06T08:47:17.001Z</time>
      </trkpt>
      <trkpt lat="46.31726" lon="-1.07015">
        <ele>1</ele>
        <time>2019-11-06T08:47:47.001Z</time>
      </trkpt>
      <trkpt lat="46.31734" lon="-1.07141">
        <ele>1</ele>
        <time>2019-11-06T08:48:47.001Z</time>
      </trkpt>
      <trkpt lat="46.31809" lon="-1.07135">
        <ele>4.895</ele>
        <time>2019-11-06T08:49:20.001Z</time>
      </trkpt>
      <trkpt lat="46.3189" lon="-1.07235">
        <ele>4.737</ele>
        <time>2019-11-06T08:49:50.001Z</time>
      </trkpt>
      <trkpt lat="46.31937" lon="-1.07381">
        <ele>4.921</ele>
        <time>2019-11-06T08:50:23.001Z</time>
      </trkpt>
      <trkpt lat="46.3193" lon="-1.0748">
        <ele>7.15</ele>
        <time>2019-11-06T08:50:53.001Z</time>
      </trkpt>
      <trkpt lat="46.31906" lon="-1.07677">
        <ele>4.774</ele>
        <time>2019-11-06T08:51:26.001Z</time>
      </trkpt>
      <trkpt lat="46.31967" lon="-1.07883">
        <ele>3.234</ele>
        <time>2019-11-06T08:51:59.001Z</time>
      </trkpt>
      <trkpt lat="46.32034" lon="-1.0805">
        <ele>3.94</ele>
        <time>2019-11-06T08:52:29.001Z</time>
      </trkpt>
      <trkpt lat="46.3211" lon="-1.08204">
        <ele>3.702</ele>
        <time>2019-11-06T08:53:02Z</time>
      </trkpt>
      <trkpt lat="46.32255" lon="-1.08216">
        <ele>2.596</ele>
        <time>2019-11-06T08:53:35.001Z</time>
      </trkpt>
      <trkpt lat="46.32376" lon="-1.08207">
        <ele>2.346</ele>
        <time>2019-11-06T08:54:05.001Z</time>
      </trkpt>
      <trkpt lat="46.32509" lon="-1.08134">
        <ele>2.244</ele>
        <time>2019-11-06T08:54:38.001Z</time>
      </trkpt>
      <trkpt lat="46.32625" lon="-1.08052">
        <ele>4.33</ele>
        <time>2019-11-06T08:55:08.001Z</time>
      </trkpt>
      <trkpt lat="46.32769" lon="-1.08077">
        <ele>3.601</ele>
        <time>2019-11-06T08:55:41.001Z</time>
      </trkpt>
      <trkpt lat="46.32914" lon="-1.08105">
        <ele>2.278</ele>
        <time>2019-11-06T08:56:14.001Z</time>
      </trkpt>
      <trkpt lat="46.33041" lon="-1.08128">
        <ele>3.469</ele>
        <time>2019-11-06T08:56:44.001Z</time>
      </trkpt>
      <trkpt lat="46.33177" lon="-1.08154">
        <ele>5.141</ele>
        <time>2019-11-06T08:57:17.001Z</time>
      </trkpt>
      <trkpt lat="46.33303" lon="-1.08179">
        <ele>2.967</ele>
        <time>2019-11-06T08:57:47.001Z</time>
      </trkpt>
      <trkpt lat="46.33343" lon="-1.08127">
        <ele>4.256</ele>
        <time>2019-11-06T08:58:23.001Z</time>
      </trkpt>
      <trkpt lat="46.33316" lon="-1.08119">
        <ele>3.827</ele>
        <time>2019-11-06T09:00:26.001Z</time>
      </trkpt>
      <trkpt lat="46.33347" lon="-1.08189">
        <ele>3.507</ele>
        <time>2019-11-06T09:00:56.001Z</time>
      </trkpt>
      <trkpt lat="46.332" lon="-1.08158">
        <ele>5.821</ele>
        <time>2019-11-06T09:01:29.001Z</time>
      </trkpt>
      <trkpt lat="46.33037" lon="-1.08127">
        <ele>5.196</ele>
        <time>2019-11-06T09:02:02Z</time>
      </trkpt>
      <trkpt lat="46.32892" lon="-1.08101">
        <ele>5.145</ele>
        <time>2019-11-06T09:02:32.001Z</time>
      </trkpt>
      <trkpt lat="46.32735" lon="-1.08072">
        <ele>6.908</ele>
        <time>2019-11-06T09:03:05.001Z</time>
      </trkpt>
      <trkpt lat="46.32589" lon="-1.08069">
        <ele>4.959</ele>
        <time>2019-11-06T09:03:35.001Z</time>
      </trkpt>
      <trkpt lat="46.3245" lon="-1.08172">
        <ele>2.11</ele>
        <time>2019-11-06T09:04:08.001Z</time>
      </trkpt>
      <trkpt lat="46.323" lon="-1.08219">
        <ele>5.733</ele>
        <time>2019-11-06T09:04:41.001Z</time>
      </trkpt>
      <trkpt lat="46.32157" lon="-1.08218">
        <ele>6.203</ele>
        <time>2019-11-06T09:05:11.001Z</time>
      </trkpt>
      <trkpt lat="46.32007" lon="-1.08231">
        <ele>4.406</ele>
        <time>2019-11-06T09:05:44.001Z</time>
      </trkpt>
      <trkpt lat="46.31858" lon="-1.08249">
        <ele>4.951</ele>
        <time>2019-11-06T09:06:17.001Z</time>
      </trkpt>
      <trkpt lat="46.31781" lon="-1.08297">
        <ele>6.002</ele>
        <time>2019-11-06T09:06:50.001Z</time>
      </trkpt>
      <trkpt lat="46.31756" lon="-1.08403">
        <ele>6.362</ele>
        <time>2019-11-06T09:07:26.001Z</time>
      </trkpt>
      <trkpt lat="46.31795" lon="-1.08535">
        <ele>6.467</ele>
        <time>2019-11-06T09:07:56.001Z</time>
      </trkpt>
      <trkpt lat="46.31845" lon="-1.08692">
        <ele>5.775</ele>
        <time>2019-11-06T09:08:29.001Z</time>
      </trkpt>
      <trkpt lat="46.31875" lon="-1.08859">
        <ele>6.039</ele>
        <time>2019-11-06T09:09:02Z</time>
      </trkpt>
      <trkpt lat="46.31959" lon="-1.08957">
        <ele>5.532</ele>
        <time>2019-11-06T09:09:32.001Z</time>
      </trkpt>
      <trkpt lat="46.32016" lon="-1.09029">
        <ele>3.703</ele>
        <time>2019-11-06T09:10:35.001Z</time>
      </trkpt>
      <trkpt lat="46.32102" lon="-1.09129">
        <ele>4.323</ele>
        <time>2019-11-06T09:11:05.001Z</time>
      </trkpt>
      <trkpt lat="46.32202" lon="-1.09232">
        <ele>5.004</ele>
        <time>2019-11-06T09:11:38.001Z</time>
      </trkpt>
      <trkpt lat="46.32302" lon="-1.09334">
        <ele>5.488</ele>
        <time>2019-11-06T09:12:11.001Z</time>
      </trkpt>
      <trkpt lat="46.32385" lon="-1.09444">
        <ele>2.687</ele>
        <time>2019-11-06T09:12:41.001Z</time>
      </trkpt>
      <trkpt lat="46.32478" lon="-1.09566">
        <ele>2.498</ele>
        <time>2019-11-06T09:13:14.001Z</time>
      </trkpt>
      <trkpt lat="46.32572" lon="-1.09679">
        <ele>5.048</ele>
        <time>2019-11-06T09:13:47.001Z</time>
      </trkpt>
      <trkpt lat="46.32655" lon="-1.09774">
        <ele>3.25</ele>
        <time>2019-11-06T09:14:17.001Z</time>
      </trkpt>
      <trkpt lat="46.32745" lon="-1.09889">
        <ele>3.823</ele>
        <time>2019-11-06T09:14:50.001Z</time>
      </trkpt>
      <trkpt lat="46.32794" lon="-1.0994">
        <ele>3.769</ele>
        <time>2019-11-06T09:16:23.001Z</time>
      </trkpt>
      <trkpt lat="46.32875" lon="-1.10023">
        <ele>4.035</ele>
        <time>2019-11-06T09:17:26.001Z</time>
      </trkpt>
      <trkpt lat="46.3299" lon="-1.10119">
        <ele>5.89</ele>
        <time>2019-11-06T09:17:59.001Z</time>
      </trkpt>
      <trkpt lat="46.33103" lon="-1.10177">
        <ele>5.232</ele>
        <time>2019-11-06T09:18:29.001Z</time>
      </trkpt>
      <trkpt lat="46.33174" lon="-1.10317">
        <ele>2.894</ele>
        <time>2019-11-06T09:19:02Z</time>
      </trkpt>
      <trkpt lat="46.33205" lon="-1.10495">
        <ele>1.254</ele>
        <time>2019-11-06T09:19:32.001Z</time>
      </trkpt>
      <trkpt lat="46.33182" lon="-1.1069">
        <ele>0.848</ele>
        <time>2019-11-06T09:20:05.001Z</time>
      </trkpt>
      <trkpt lat="46.33093" lon="-1.10857">
        <ele>1.917</ele>
        <time>2019-11-06T09:20:38.001Z</time>
      </trkpt>
      <trkpt lat="46.33016" lon="-1.11">
        <ele>2.941</ele>
        <time>2019-11-06T09:21:08.001Z</time>
      </trkpt>
      <trkpt lat="46.32945" lon="-1.11167">
        <ele>4.09</ele>
        <time>2019-11-06T09:21:41.001Z</time>
      </trkpt>
      <trkpt lat="46.32931" lon="-1.11359">
        <ele>4.595</ele>
        <time>2019-11-06T09:22:14.001Z</time>
      </trkpt>
      <trkpt lat="46.32927" lon="-1.11537">
        <ele>1.306</ele>
        <time>2019-11-06T09:22:44.001Z</time>
      </trkpt>
      <trkpt lat="46.32911" lon="-1.11758">
        <ele>0.572</ele>
        <time>2019-11-06T09:23:17.001Z</time>
      </trkpt>
      <trkpt lat="46.32933" lon="-1.11955">
        <ele>1.945</ele>
        <time>2019-11-06T09:23:47.001Z</time>
      </trkpt>
      <trkpt lat="46.32955" lon="-1.12158">
        <ele>1.301</ele>
        <time>2019-11-06T09:24:20.001Z</time>
      </trkpt>
      <trkpt lat="46.33" lon="-1.1235">
        <ele>0.727</ele>
        <time>2019-11-06T09:24:53.001Z</time>
      </trkpt>
      <trkpt lat="46.33087" lon="-1.12488">
        <ele>1.3</ele>
        <time>2019-11-06T09:25:23.001Z</time>
      </trkpt>
      <trkpt lat="46.33183" lon="-1.1263">
        <ele>0.54</ele>
        <time>2019-11-06T09:25:56.001Z</time>
      </trkpt>
      <trkpt lat="46.3328" lon="-1.12777">
        <ele>1.857</ele>
        <time>2019-11-06T09:26:29.001Z</time>
      </trkpt>
      <trkpt lat="46.33367" lon="-1.12911">
        <ele>1.995</ele>
        <time>2019-11-06T09:26:59.001Z</time>
      </trkpt>
      <trkpt lat="46.33459" lon="-1.13052">
        <ele>1.668</ele>
        <time>2019-11-06T09:27:32.001Z</time>
      </trkpt>
      <trkpt lat="46.33546" lon="-1.13184">
        <ele>1.212</ele>
        <time>2019-11-06T09:28:02Z</time>
      </trkpt>
      <trkpt lat="46.33639" lon="-1.13328">
        <ele>1.868</ele>
        <time>2019-11-06T09:28:35.001Z</time>
      </trkpt>
      <trkpt lat="46.33726" lon="-1.13468">
        <ele>2.327</ele>
        <time>2019-11-06T09:29:08.001Z</time>
      </trkpt>
      <trkpt lat="46.33809" lon="-1.13595">
        <ele>0.287</ele>
        <time>2019-11-06T09:29:38.001Z</time>
      </trkpt>
      <trkpt lat="46.33897" lon="-1.13735">
        <ele>1.477</ele>
        <time>2019-11-06T09:30:11.001Z</time>
      </trkpt>
      <trkpt lat="46.33977" lon="-1.1386">
        <ele>1.632</ele>
        <time>2019-11-06T09:30:41.001Z</time>
      </trkpt>
      <trkpt lat="46.34064" lon="-1.13997">
        <ele>2.862</ele>
        <time>2019-11-06T09:31:14.001Z</time>
      </trkpt>
      <trkpt lat="46.34143" lon="-1.1415">
        <ele>3.861</ele>
        <time>2019-11-06T09:31:47.001Z</time>
      </trkpt>
      <trkpt lat="46.3421" lon="-1.14285">
        <ele>3.413</ele>
        <time>2019-11-06T09:32:17.001Z</time>
      </trkpt>
      <trkpt lat="46.34286" lon="-1.14434">
        <ele>4.443</ele>
        <time>2019-11-06T09:32:50.001Z</time>
      </trkpt>
      <trkpt lat="46.3436" lon="-1.14584">
        <ele>3.162</ele>
        <time>2019-11-06T09:33:23.001Z</time>
      </trkpt>
      <trkpt lat="46.34427" lon="-1.14719">
        <ele>3.8</ele>
        <time>2019-11-06T09:33:53.001Z</time>
      </trkpt>
      <trkpt lat="46.34503" lon="-1.1487">
        <ele>2.351</ele>
        <time>2019-11-06T09:34:26.001Z</time>
      </trkpt>
      <trkpt lat="46.3457" lon="-1.15006">
        <ele>3.001</ele>
        <time>2019-11-06T09:34:56.001Z</time>
      </trkpt>
      <trkpt lat="46.34676" lon="-1.15074">
        <ele>2.332</ele>
        <time>2019-11-06T09:35:29.001Z</time>
      </trkpt>
      <trkpt lat="46.34802" lon="-1.15072">
        <ele>2.236</ele>
        <time>2019-11-06T09:36:02Z</time>
      </trkpt>
      <trkpt lat="46.349" lon="-1.15146">
        <ele>1.543</ele>
        <time>2019-11-06T09:36:32.001Z</time>
      </trkpt>
      <trkpt lat="46.34986" lon="-1.15268">
        <ele>3.213</ele>
        <time>2019-11-06T09:37:05.001Z</time>
      </trkpt>
      <trkpt lat="46.35055" lon="-1.15413">
        <ele>2.967</ele>
        <time>2019-11-06T09:37:38.001Z</time>
      </trkpt>
      <trkpt lat="46.35118" lon="-1.15544">
        <ele>3.936</ele>
        <time>2019-11-06T09:38:08.001Z</time>
      </trkpt>
      <trkpt lat="46.3519" lon="-1.15696">
        <ele>4.43</ele>
        <time>2019-11-06T09:38:41.001Z</time>
      </trkpt>
      <trkpt lat="46.35259" lon="-1.15838">
        <ele>2.311</ele>
        <time>2019-11-06T09:39:11.001Z</time>
      </trkpt>
      <trkpt lat="46.35334" lon="-1.15992">
        <ele>5.08</ele>
        <time>2019-11-06T09:39:44.001Z</time>
      </trkpt>
      <trkpt lat="46.35412" lon="-1.16155">
        <ele>5.827</ele>
        <time>2019-11-06T09:40:17.001Z</time>
      </trkpt>
      <trkpt lat="46.35463" lon="-1.163">
        <ele>6.081</ele>
        <time>2019-11-06T09:40:47.001Z</time>
      </trkpt>
      <trkpt lat="46.35488" lon="-1.16486">
        <ele>4.297</ele>
        <time>2019-11-06T09:41:20.001Z</time>
      </trkpt>
      <trkpt lat="46.35565" lon="-1.16571">
        <ele>2.958</ele>
        <time>2019-11-06T09:41:50.001Z</time>
      </trkpt>
      <trkpt lat="46.35577" lon="-1.16585">
        <ele>3.893</ele>
        <time>2019-11-06T09:42:23.001Z</time>
      </trkpt>
      <trkpt lat="46.35614" lon="-1.16619">
        <ele>5.779</ele>
        <time>2019-11-06T09:44:08.001Z</time>
      </trkpt>
      <trkpt lat="46.35713" lon="-1.16638">
        <ele>3.112</ele>
        <time>2019-11-06T09:44:38.001Z</time>
      </trkpt>
      <trkpt lat="46.35818" lon="-1.16655">
        <ele>3.052</ele>
        <time>2019-11-06T09:45:11.001Z</time>
      </trkpt>
      <trkpt lat="46.35814" lon="-1.16807">
        <ele>2.427</ele>
        <time>2019-11-06T09:45:44.001Z</time>
      </trkpt>
      <trkpt lat="46.3587" lon="-1.1692">
        <ele>3.582</ele>
        <time>2019-11-06T09:46:14.001Z</time>
      </trkpt>
      <trkpt lat="46.35953" lon="-1.1703">
        <ele>2.152</ele>
        <time>2019-11-06T09:46:47.001Z</time>
      </trkpt>
      <trkpt lat="46.3603" lon="-1.17132">
        <ele>1.572</ele>
        <time>2019-11-06T09:47:17.001Z</time>
      </trkpt>
      <trkpt lat="46.36106" lon="-1.17244">
        <ele>4.698</ele>
        <time>2019-11-06T09:47:50.001Z</time>
      </trkpt>
      <trkpt lat="46.36105" lon="-1.17417">
        <ele>2.879</ele>
        <time>2019-11-06T09:48:23.001Z</time>
      </trkpt>
      <trkpt lat="46.361" lon="-1.17571">
        <ele>3.99</ele>
        <time>2019-11-06T09:48:53.001Z</time>
      </trkpt>
      <trkpt lat="46.36095" lon="-1.17748">
        <ele>4.081</ele>
        <time>2019-11-06T09:49:26.001Z</time>
      </trkpt>
      <trkpt lat="46.36095" lon="-1.17916">
        <ele>3.404</ele>
        <time>2019-11-06T09:49:59.001Z</time>
      </trkpt>
      <trkpt lat="46.36103" lon="-1.18062">
        <ele>4.278</ele>
        <time>2019-11-06T09:50:29.001Z</time>
      </trkpt>
      <trkpt lat="46.36121" lon="-1.18227">
        <ele>3.772</ele>
        <time>2019-11-06T09:51:02Z</time>
      </trkpt>
      <trkpt lat="46.3614" lon="-1.18395">
        <ele>4.65</ele>
        <time>2019-11-06T09:51:32.001Z</time>
      </trkpt>
      <trkpt lat="46.36139" lon="-1.18573">
        <ele>3.251</ele>
        <time>2019-11-06T09:52:05.001Z</time>
      </trkpt>
      <trkpt lat="46.36113" lon="-1.18749">
        <ele>2.769</ele>
        <time>2019-11-06T09:52:38.001Z</time>
      </trkpt>
      <trkpt lat="46.36091" lon="-1.1891">
        <ele>1.612</ele>
        <time>2019-11-06T09:53:08.001Z</time>
      </trkpt>
      <trkpt lat="46.36073" lon="-1.19086">
        <ele>0.163</ele>
        <time>2019-11-06T09:53:41.001Z</time>
      </trkpt>
      <trkpt lat="46.36057" lon="-1.19251">
        <ele>1.91</ele>
        <time>2019-11-06T09:54:11.001Z</time>
      </trkpt>
      <trkpt lat="46.36036" lon="-1.19436">
        <ele>3.844</ele>
        <time>2019-11-06T09:54:44.001Z</time>
      </trkpt>
      <trkpt lat="46.36015" lon="-1.19616">
        <ele>2.375</ele>
        <time>2019-11-06T09:55:17.001Z</time>
      </trkpt>
      <trkpt lat="46.35997" lon="-1.19775">
        <ele>2.41</ele>
        <time>2019-11-06T09:55:47.001Z</time>
      </trkpt>
      <trkpt lat="46.35981" lon="-1.19947">
        <ele>0.964</ele>
        <time>2019-11-06T09:56:20.001Z</time>
      </trkpt>
      <trkpt lat="46.35968" lon="-1.20116">
        <ele>3.412</ele>
        <time>2019-11-06T09:56:53.001Z</time>
      </trkpt>
      <trkpt lat="46.35955" lon="-1.20267">
        <ele>3.098</ele>
        <time>2019-11-06T09:57:23.001Z</time>
      </trkpt>
      <trkpt lat="46.35937" lon="-1.20429">
        <ele>1.135</ele>
        <time>2019-11-06T09:57:56.001Z</time>
      </trkpt>
      <trkpt lat="46.35923" lon="-1.20586">
        <ele>0.5</ele>
        <time>2019-11-06T09:58:26.001Z</time>
      </trkpt>
      <trkpt lat="46.35923" lon="-1.20756">
        <ele>1.663</ele>
        <time>2019-11-06T09:58:59.001Z</time>
      </trkpt>
      <trkpt lat="46.35932" lon="-1.2092">
        <ele>1.912</ele>
        <time>2019-11-06T09:59:32.001Z</time>
      </trkpt>
      <trkpt lat="46.35944" lon="-1.21076">
        <ele>3.525</ele>
        <time>2019-11-06T10:00:02Z</time>
      </trkpt>
      <trkpt lat="46.35951" lon="-1.2124">
        <ele>3.192</ele>
        <time>2019-11-06T10:00:35.001Z</time>
      </trkpt>
      <trkpt lat="46.35963" lon="-1.21402">
        <ele>6.168</ele>
        <time>2019-11-06T10:01:08.001Z</time>
      </trkpt>
      <trkpt lat="46.35971" lon="-1.21557">
        <ele>3.778</ele>
        <time>2019-11-06T10:01:38.001Z</time>
      </trkpt>
      <trkpt lat="46.35961" lon="-1.21694">
        <ele>2.986</ele>
        <time>2019-11-06T10:02:14.001Z</time>
      </trkpt>
      <trkpt lat="46.35879" lon="-1.21666">
        <ele>3.149</ele>
        <time>2019-11-06T10:02:44.001Z</time>
      </trkpt>
      <trkpt lat="46.35804" lon="-1.21632">
        <ele>1.885</ele>
        <time>2019-11-06T10:03:17.001Z</time>
      </trkpt>
      <trkpt lat="46.35812" lon="-1.21695">
        <ele>4.215</ele>
        <time>2019-11-06T10:04:11.001Z</time>
      </trkpt>
      <trkpt lat="46.35875" lon="-1.2178">
        <ele>2.367</ele>
        <time>2019-11-06T10:04:41.001Z</time>
      </trkpt>
      <trkpt lat="46.35913" lon="-1.21891">
        <ele>3.583</ele>
        <time>2019-11-06T10:05:14.001Z</time>
      </trkpt>
      <trkpt lat="46.35864" lon="-1.22011">
        <ele>1.151</ele>
        <time>2019-11-06T10:05:44.001Z</time>
      </trkpt>
      <trkpt lat="46.35812" lon="-1.22147">
        <ele>1.786</ele>
        <time>2019-11-06T10:06:17.001Z</time>
      </trkpt>
      <trkpt lat="46.35759" lon="-1.2229">
        <ele>1.994</ele>
        <time>2019-11-06T10:06:50.001Z</time>
      </trkpt>
      <trkpt lat="46.35723" lon="-1.2243">
        <ele>3.685</ele>
        <time>2019-11-06T10:07:20.001Z</time>
      </trkpt>
      <trkpt lat="46.35677" lon="-1.22589">
        <ele>4.134</ele>
        <time>2019-11-06T10:07:53.001Z</time>
      </trkpt>
      <trkpt lat="46.35634" lon="-1.22742">
        <ele>3.389</ele>
        <time>2019-11-06T10:08:26.001Z</time>
      </trkpt>
      <trkpt lat="46.35594" lon="-1.22878">
        <ele>0.713</ele>
        <time>2019-11-06T10:08:56.001Z</time>
      </trkpt>
      <trkpt lat="46.35551" lon="-1.23026">
        <ele>2.031</ele>
        <time>2019-11-06T10:09:29.001Z</time>
      </trkpt>
      <trkpt lat="46.35516" lon="-1.23161">
        <ele>1.591</ele>
        <time>2019-11-06T10:09:59.001Z</time>
      </trkpt>
      <trkpt lat="46.35478" lon="-1.23318">
        <ele>1.724</ele>
        <time>2019-11-06T10:10:32.001Z</time>
      </trkpt>
      <trkpt lat="46.35428" lon="-1.23465">
        <ele>5.33</ele>
        <time>2019-11-06T10:11:05.001Z</time>
      </trkpt>
      <trkpt lat="46.35379" lon="-1.23599">
        <ele>1.509</ele>
        <time>2019-11-06T10:11:35.001Z</time>
      </trkpt>
      <trkpt lat="46.35333" lon="-1.23755">
        <ele>0.407</ele>
        <time>2019-11-06T10:12:08.001Z</time>
      </trkpt>
      <trkpt lat="46.3529" lon="-1.23893">
        <ele>1.739</ele>
        <time>2019-11-06T10:12:38.001Z</time>
      </trkpt>
      <trkpt lat="46.35266" lon="-1.24063">
        <ele>0.683</ele>
        <time>2019-11-06T10:13:11.001Z</time>
      </trkpt>
      <trkpt lat="46.35227" lon="-1.2423">
        <ele>2.041</ele>
        <time>2019-11-06T10:13:44.001Z</time>
      </trkpt>
      <trkpt lat="46.35193" lon="-1.24374">
        <ele>4.333</ele>
        <time>2019-11-06T10:14:14.001Z</time>
      </trkpt>
      <trkpt lat="46.35145" lon="-1.2454">
        <ele>2.122</ele>
        <time>2019-11-06T10:14:47.001Z</time>
      </trkpt>
      <trkpt lat="46.35098" lon="-1.24704">
        <ele>1.063</ele>
        <time>2019-11-06T10:15:20.001Z</time>
      </trkpt>
      <trkpt lat="46.35031" lon="-1.24768">
        <ele>3.189</ele>
        <time>2019-11-06T10:15:50.001Z</time>
      </trkpt>
      <trkpt lat="46.35021" lon="-1.24767">
        <ele>2.611</ele>
        <time>2019-11-06T10:39:23.001Z</time>
      </trkpt>
      <trkpt lat="46.35085" lon="-1.24788">
        <ele>3.143</ele>
        <time>2019-11-06T10:43:47.001Z</time>
      </trkpt>
      <trkpt lat="46.35012" lon="-1.24933">
        <ele>0.613</ele>
        <time>2019-11-06T10:44:20.001Z</time>
      </trkpt>
      <trkpt lat="46.34952" lon="-1.25064">
        <ele>2.6</ele>
        <time>2019-11-06T10:44:56.001Z</time>
      </trkpt>
      <trkpt lat="46.35019" lon="-1.25087">
        <ele>4.147</ele>
        <time>2019-11-06T10:45:26.001Z</time>
      </trkpt>
      <trkpt lat="46.34985" lon="-1.25241">
        <ele>2.743</ele>
        <time>2019-11-06T10:46:02Z</time>
      </trkpt>
      <trkpt lat="46.34955" lon="-1.25433">
        <ele>3.192</ele>
        <time>2019-11-06T10:46:35.001Z</time>
      </trkpt>
      <trkpt lat="46.34923" lon="-1.25611">
        <ele>5.597</ele>
        <time>2019-11-06T10:47:05.001Z</time>
      </trkpt>
      <trkpt lat="46.34899" lon="-1.25805">
        <ele>8.073</ele>
        <time>2019-11-06T10:47:38.001Z</time>
      </trkpt>
      <trkpt lat="46.34871" lon="-1.25984">
        <ele>2.083</ele>
        <time>2019-11-06T10:48:08.001Z</time>
      </trkpt>
      <trkpt lat="46.34872" lon="-1.26189">
        <ele>2.154</ele>
        <time>2019-11-06T10:48:41.001Z</time>
      </trkpt>
      <trkpt lat="46.34861" lon="-1.26364">
        <ele>2.996</ele>
        <time>2019-11-06T10:49:14.001Z</time>
      </trkpt>
      <trkpt lat="46.34777" lon="-1.26476">
        <ele>1.8</ele>
        <time>2019-11-06T10:49:44.001Z</time>
      </trkpt>
      <trkpt lat="46.34682" lon="-1.26616">
        <ele>2.4</ele>
        <time>2019-11-06T10:50:17.001Z</time>
      </trkpt>
      <trkpt lat="46.34602" lon="-1.26747">
        <ele>1.745</ele>
        <time>2019-11-06T10:50:47.001Z</time>
      </trkpt>
      <trkpt lat="46.34516" lon="-1.26896">
        <ele>1.3</ele>
        <time>2019-11-06T10:51:20.001Z</time>
      </trkpt>
      <trkpt lat="46.34429" lon="-1.2705">
        <ele>1.2</ele>
        <time>2019-11-06T10:51:53.001Z</time>
      </trkpt>
      <trkpt lat="46.34352" lon="-1.27185">
        <ele>2.1</ele>
        <time>2019-11-06T10:52:23.001Z</time>
      </trkpt>
      <trkpt lat="46.34268" lon="-1.27337">
        <ele>2</ele>
        <time>2019-11-06T10:52:56.001Z</time>
      </trkpt>
      <trkpt lat="46.34182" lon="-1.27485">
        <ele>2.4</ele>
        <time>2019-11-06T10:53:29.001Z</time>
      </trkpt>
      <trkpt lat="46.34106" lon="-1.2762">
        <ele>1</ele>
        <time>2019-11-06T10:53:59.001Z</time>
      </trkpt>
      <trkpt lat="46.34016" lon="-1.27779">
        <ele>2</ele>
        <time>2019-11-06T10:54:32.001Z</time>
      </trkpt>
      <trkpt lat="46.33937" lon="-1.27918">
        <ele>1</ele>
        <time>2019-11-06T10:55:02Z</time>
      </trkpt>
      <trkpt lat="46.33867" lon="-1.28076">
        <ele>1.661</ele>
        <time>2019-11-06T10:55:35.001Z</time>
      </trkpt>
      <trkpt lat="46.33875" lon="-1.28225">
        <ele>2.424</ele>
        <time>2019-11-06T10:56:08.001Z</time>
      </trkpt>
      <trkpt lat="46.33867" lon="-1.28088">
        <ele>0.021</ele>
        <time>2019-11-06T10:56:41.001Z</time>
      </trkpt>
      <trkpt lat="46.33786" lon="-1.28206">
        <ele>1.5</ele>
        <time>2019-11-06T10:57:14.001Z</time>
      </trkpt>
      <trkpt lat="46.33689" lon="-1.28355">
        <ele>2.324</ele>
        <time>2019-11-06T10:57:47.001Z</time>
      </trkpt>
      <trkpt lat="46.3362" lon="-1.28516">
        <ele>0.071</ele>
        <time>2019-11-06T10:58:17.001Z</time>
      </trkpt>
      <trkpt lat="46.33546" lon="-1.28697">
        <ele>1.2</ele>
        <time>2019-11-06T10:58:50.001Z</time>
      </trkpt>
      <trkpt lat="46.33481" lon="-1.2886">
        <ele>1.6</ele>
        <time>2019-11-06T10:59:20.001Z</time>
      </trkpt>
      <trkpt lat="46.33409" lon="-1.29041">
        <ele>1.5</ele>
        <time>2019-11-06T10:59:53.001Z</time>
      </trkpt>
      <trkpt lat="46.33339" lon="-1.29223">
        <ele>1.7</ele>
        <time>2019-11-06T11:00:26.001Z</time>
      </trkpt>
      <trkpt lat="46.33284" lon="-1.29375">
        <ele>1.164</ele>
        <time>2019-11-06T11:00:56.001Z</time>
      </trkpt>
      <trkpt lat="46.33205" lon="-1.29541">
        <ele>2.013</ele>
        <time>2019-11-06T11:01:29.001Z</time>
      </trkpt>
      <trkpt lat="46.33118" lon="-1.29661">
        <ele>2.33</ele>
        <time>2019-11-06T11:01:59.001Z</time>
      </trkpt>
      <trkpt lat="46.33014" lon="-1.29774">
        <ele>3.594</ele>
        <time>2019-11-06T11:02:32.001Z</time>
      </trkpt>
      <trkpt lat="46.32893" lon="-1.2991">
        <ele>2.044</ele>
        <time>2019-11-06T11:03:05.001Z</time>
      </trkpt>
      <trkpt lat="46.32797" lon="-1.30016">
        <ele>2.488</ele>
        <time>2019-11-06T11:03:35.001Z</time>
      </trkpt>
      <trkpt lat="46.32893" lon="-1.30155">
        <ele>5.118</ele>
        <time>2019-11-06T11:04:08.001Z</time>
      </trkpt>
      <trkpt lat="46.32977" lon="-1.30324">
        <ele>6.315</ele>
        <time>2019-11-06T11:04:41.001Z</time>
      </trkpt>
      <trkpt lat="46.33073" lon="-1.30448">
        <ele>6.696</ele>
        <time>2019-11-06T11:05:11.001Z</time>
      </trkpt>
      <trkpt lat="46.33173" lon="-1.30591">
        <ele>4.696</ele>
        <time>2019-11-06T11:05:44.001Z</time>
      </trkpt>
      <trkpt lat="46.33243" lon="-1.30733">
        <ele>4.661</ele>
        <time>2019-11-06T11:06:14.001Z</time>
      </trkpt>
      <trkpt lat="46.33192" lon="-1.30887">
        <ele>0.029</ele>
        <time>2019-11-06T11:06:47.001Z</time>
      </trkpt>
      <trkpt lat="46.3325" lon="-1.31048">
        <ele>1</ele>
        <time>2019-11-06T11:07:20.001Z</time>
      </trkpt>
      <trkpt lat="46.33299" lon="-1.31135">
        <ele>3</ele>
        <time>2019-11-06T11:07:50.001Z</time>
      </trkpt>
      <trkpt lat="46.33393" lon="-1.31251">
        <ele>0.184</ele>
        <time>2019-11-06T11:08:23.001Z</time>
      </trkpt>
      <trkpt lat="46.33473" lon="-1.31276">
        <ele>7.716</ele>
        <time>2019-11-06T11:10:50.001Z</time>
      </trkpt>
      <trkpt lat="46.33513" lon="-1.31372">
        <ele>10.054</ele>
        <time>2019-11-06T11:11:23.001Z</time>
      </trkpt>
      <trkpt lat="46.33548" lon="-1.31508">
        <ele>4.108</ele>
        <time>2019-11-06T11:11:56.001Z</time>
      </trkpt>
      <trkpt lat="46.33486" lon="-1.3163">
        <ele>3.831</ele>
        <time>2019-11-06T11:12:26.001Z</time>
      </trkpt>
      <trkpt lat="46.33409" lon="-1.31774">
        <ele>3.744</ele>
        <time>2019-11-06T11:12:59.001Z</time>
      </trkpt>
      <trkpt lat="46.33329" lon="-1.31906">
        <ele>0.565</ele>
        <time>2019-11-06T11:13:32.001Z</time>
      </trkpt>
      <trkpt lat="46.33327" lon="-1.3203">
        <ele>3.361</ele>
        <time>2019-11-06T11:14:02Z</time>
      </trkpt>
      <trkpt lat="46.3329" lon="-1.32222">
        <ele>3.874</ele>
        <time>2019-11-06T11:14:35.001Z</time>
      </trkpt>
      <trkpt lat="46.33295" lon="-1.32227">
        <ele>6.602</ele>
        <time>2019-11-06T11:15:05.001Z</time>
      </trkpt>
      <trkpt lat="46.33361" lon="-1.32392">
        <ele>5.925</ele>
        <time>2019-11-06T11:15:38.001Z</time>
      </trkpt>
      <trkpt lat="46.33397" lon="-1.32463">
        <ele>7.289</ele>
        <time>2019-11-06T11:16:11.001Z</time>
      </trkpt>
      <trkpt lat="46.33433" lon="-1.32549">
        <ele>9.208</ele>
        <time>2019-11-06T11:17:47.001Z</time>
      </trkpt>
      <trkpt lat="46.33502" lon="-1.32699">
        <ele>7.719</ele>
        <time>2019-11-06T11:18:20.001Z</time>
      </trkpt>
      <trkpt lat="46.33576" lon="-1.32866">
        <ele>8.434</ele>
        <time>2019-11-06T11:18:53.001Z</time>
      </trkpt>
      <trkpt lat="46.33632" lon="-1.33018">
        <ele>4.796</ele>
        <time>2019-11-06T11:19:23.001Z</time>
      </trkpt>
      <trkpt lat="46.33607" lon="-1.33216">
        <ele>3.707</ele>
        <time>2019-11-06T11:19:56.001Z</time>
      </trkpt>
      <trkpt lat="46.33626" lon="-1.33379">
        <ele>2.293</ele>
        <time>2019-11-06T11:20:26.001Z</time>
      </trkpt>
      <trkpt lat="46.33649" lon="-1.33412">
        <ele>3.613</ele>
        <time>2019-11-06T11:24:41.001Z</time>
      </trkpt>
      <trkpt lat="46.33733" lon="-1.33527">
        <ele>5.021</ele>
        <time>2019-11-06T11:25:14.001Z</time>
      </trkpt>
      <trkpt lat="46.3378" lon="-1.33589">
        <ele>5.291</ele>
        <time>2019-11-06T11:26:44.001Z</time>
      </trkpt>
      <trkpt lat="46.33859" lon="-1.33699">
        <ele>3.907</ele>
        <time>2019-11-06T11:27:17.001Z</time>
      </trkpt>
      <trkpt lat="46.33956" lon="-1.33813">
        <ele>4.752</ele>
        <time>2019-11-06T11:27:50.001Z</time>
      </trkpt>
      <trkpt lat="46.34049" lon="-1.33927">
        <ele>4.19</ele>
        <time>2019-11-06T11:28:20.001Z</time>
      </trkpt>
      <trkpt lat="46.34115" lon="-1.34013">
        <ele>1.803</ele>
        <time>2019-11-06T11:28:53.001Z</time>
      </trkpt>
      <trkpt lat="46.34183" lon="-1.34128">
        <ele>1.183</ele>
        <time>2019-11-06T11:29:23.001Z</time>
      </trkpt>
      <trkpt lat="46.34266" lon="-1.34263">
        <ele>4.309</ele>
        <time>2019-11-06T11:29:56.001Z</time>
      </trkpt>
      <trkpt lat="46.34345" lon="-1.3442">
        <ele>5.984</ele>
        <time>2019-11-06T11:30:29.001Z</time>
      </trkpt>
      <trkpt lat="46.34386" lon="-1.34597">
        <ele>5.825</ele>
        <time>2019-11-06T11:30:59.001Z</time>
      </trkpt>
      <trkpt lat="46.34433" lon="-1.34765">
        <ele>5.694</ele>
        <time>2019-11-06T11:31:32.001Z</time>
      </trkpt>
      <trkpt lat="46.34506" lon="-1.34908">
        <ele>7.675</ele>
        <time>2019-11-06T11:32:02Z</time>
      </trkpt>
      <trkpt lat="46.34594" lon="-1.35067">
        <ele>11.117</ele>
        <time>2019-11-06T11:32:35.001Z</time>
      </trkpt>
      <trkpt lat="46.34677" lon="-1.35231">
        <ele>8.005</ele>
        <time>2019-11-06T11:33:08.001Z</time>
      </trkpt>
      <trkpt lat="46.34727" lon="-1.35369">
        <ele>11.585</ele>
        <time>2019-11-06T11:33:38.001Z</time>
      </trkpt>
      <trkpt lat="46.34786" lon="-1.35589">
        <ele>7.574</ele>
        <time>2019-11-06T11:34:11.001Z</time>
      </trkpt>
      <trkpt lat="46.34834" lon="-1.35776">
        <ele>6.568</ele>
        <time>2019-11-06T11:34:44.001Z</time>
      </trkpt>
      <trkpt lat="46.34877" lon="-1.35952">
        <ele>5.402</ele>
        <time>2019-11-06T11:35:14.001Z</time>
      </trkpt>
      <trkpt lat="46.34888" lon="-1.36167">
        <ele>7.214</ele>
        <time>2019-11-06T11:35:47.001Z</time>
      </trkpt>
      <trkpt lat="46.34893" lon="-1.3635">
        <ele>7.829</ele>
        <time>2019-11-06T11:36:17.001Z</time>
      </trkpt>
      <trkpt lat="46.34903" lon="-1.36553">
        <ele>10.108</ele>
        <time>2019-11-06T11:36:50.001Z</time>
      </trkpt>
      <trkpt lat="46.34935" lon="-1.36726">
        <ele>3.952</ele>
        <time>2019-11-06T11:37:23.001Z</time>
      </trkpt>
      <trkpt lat="46.35034" lon="-1.36716">
        <ele>7.847</ele>
        <time>2019-11-06T11:37:53.001Z</time>
      </trkpt>
      <trkpt lat="46.35175" lon="-1.36794">
        <ele>5.431</ele>
        <time>2019-11-06T11:38:26.001Z</time>
      </trkpt>
      <trkpt lat="46.35223" lon="-1.3696">
        <ele>3.531</ele>
        <time>2019-11-06T11:38:56.001Z</time>
      </trkpt>
      <trkpt lat="46.35257" lon="-1.37157">
        <ele>4.329</ele>
        <time>2019-11-06T11:39:29.001Z</time>
      </trkpt>
      <trkpt lat="46.35288" lon="-1.37351">
        <ele>2.176</ele>
        <time>2019-11-06T11:40:02Z</time>
      </trkpt>
      <trkpt lat="46.35316" lon="-1.37529">
        <ele>2.402</ele>
        <time>2019-11-06T11:40:32.001Z</time>
      </trkpt>
      <trkpt lat="46.35349" lon="-1.37722">
        <ele>3.424</ele>
        <time>2019-11-06T11:41:05.001Z</time>
      </trkpt>
      <trkpt lat="46.35376" lon="-1.37903">
        <ele>4.706</ele>
        <time>2019-11-06T11:41:38.001Z</time>
      </trkpt>
      <trkpt lat="46.35406" lon="-1.38076">
        <ele>3.149</ele>
        <time>2019-11-06T11:42:08.001Z</time>
      </trkpt>
      <trkpt lat="46.35429" lon="-1.38258">
        <ele>3.579</ele>
        <time>2019-11-06T11:42:41.001Z</time>
      </trkpt>
      <trkpt lat="46.35438" lon="-1.38441">
        <ele>4.069</ele>
        <time>2019-11-06T11:43:11.001Z</time>
      </trkpt>
      <trkpt lat="46.35432" lon="-1.38641">
        <ele>4</ele>
        <time>2019-11-06T11:43:44.001Z</time>
      </trkpt>
      <trkpt lat="46.35414" lon="-1.38824">
        <ele>5.615</ele>
        <time>2019-11-06T11:44:17.001Z</time>
      </trkpt>
      <trkpt lat="46.35388" lon="-1.39002">
        <ele>4.158</ele>
        <time>2019-11-06T11:44:47.001Z</time>
      </trkpt>
      <trkpt lat="46.35363" lon="-1.39188">
        <ele>4.201</ele>
        <time>2019-11-06T11:45:20.001Z</time>
      </trkpt>
      <trkpt lat="46.35331" lon="-1.3938">
        <ele>2.686</ele>
        <time>2019-11-06T11:45:53.001Z</time>
      </trkpt>
      <trkpt lat="46.35319" lon="-1.39555">
        <ele>3.885</ele>
        <time>2019-11-06T11:46:23.001Z</time>
      </trkpt>
      <trkpt lat="46.35311" lon="-1.3975">
        <ele>6.359</ele>
        <time>2019-11-06T11:46:56.001Z</time>
      </trkpt>
      <trkpt lat="46.35319" lon="-1.39931">
        <ele>4.367</ele>
        <time>2019-11-06T11:47:26.001Z</time>
      </trkpt>
      <trkpt lat="46.35329" lon="-1.40121">
        <ele>5.184</ele>
        <time>2019-11-06T11:47:59.001Z</time>
      </trkpt>
      <trkpt lat="46.35336" lon="-1.4032">
        <ele>4.231</ele>
        <time>2019-11-06T11:48:32.001Z</time>
      </trkpt>
      <trkpt lat="46.35336" lon="-1.40493">
        <ele>4.706</ele>
        <time>2019-11-06T11:49:02Z</time>
      </trkpt>
      <trkpt lat="46.35345" lon="-1.4069">
        <ele>5.779</ele>
        <time>2019-11-06T11:49:35.001Z</time>
      </trkpt>
      <trkpt lat="46.35353" lon="-1.40864">
        <ele>4.563</ele>
        <time>2019-11-06T11:50:05.001Z</time>
      </trkpt>
      <trkpt lat="46.35353" lon="-1.41058">
        <ele>5.349</ele>
        <time>2019-11-06T11:50:38.001Z</time>
      </trkpt>
      <trkpt lat="46.35355" lon="-1.41253">
        <ele>6.513</ele>
        <time>2019-11-06T11:51:11.001Z</time>
      </trkpt>
      <trkpt lat="46.3536" lon="-1.4143">
        <ele>3.371</ele>
        <time>2019-11-06T11:51:41.001Z</time>
      </trkpt>
      <trkpt lat="46.35365" lon="-1.4162">
        <ele>2.667</ele>
        <time>2019-11-06T11:52:14.001Z</time>
      </trkpt>
      <trkpt lat="46.35368" lon="-1.41821">
        <ele>2.982</ele>
        <time>2019-11-06T11:52:47.001Z</time>
      </trkpt>
      <trkpt lat="46.35372" lon="-1.41994">
        <ele>1.278</ele>
        <time>2019-11-06T11:53:17.001Z</time>
      </trkpt>
      <trkpt lat="46.35374" lon="-1.42192">
        <ele>4.273</ele>
        <time>2019-11-06T11:53:50.001Z</time>
      </trkpt>
      <trkpt lat="46.35392" lon="-1.42372">
        <ele>5.228</ele>
        <time>2019-11-06T11:54:20.001Z</time>
      </trkpt>
      <trkpt lat="46.35385" lon="-1.42509">
        <ele>5.851</ele>
        <time>2019-11-06T11:54:53.001Z</time>
      </trkpt>
      <trkpt lat="46.35311" lon="-1.42673">
        <ele>4.461</ele>
        <time>2019-11-06T11:55:26.001Z</time>
      </trkpt>
      <trkpt lat="46.35239" lon="-1.42809">
        <ele>3.555</ele>
        <time>2019-11-06T11:55:56.001Z</time>
      </trkpt>
      <trkpt lat="46.35213" lon="-1.4293">
        <ele>3.505</ele>
        <time>2019-11-06T11:56:29.001Z</time>
      </trkpt>
      <trkpt lat="46.35237" lon="-1.43085">
        <ele>6.821</ele>
        <time>2019-11-06T11:57:02Z</time>
      </trkpt>
      <trkpt lat="46.35294" lon="-1.43219">
        <ele>6.415</ele>
        <time>2019-11-06T11:57:32.001Z</time>
      </trkpt>
      <trkpt lat="46.35364" lon="-1.43377">
        <ele>7.435</ele>
        <time>2019-11-06T11:58:05.001Z</time>
      </trkpt>
      <trkpt lat="46.35427" lon="-1.4353">
        <ele>4.285</ele>
        <time>2019-11-06T11:58:35.001Z</time>
      </trkpt>
      <trkpt lat="46.35485" lon="-1.437">
        <ele>4.072</ele>
        <time>2019-11-06T11:59:08.001Z</time>
      </trkpt>
      <trkpt lat="46.35544" lon="-1.43864">
        <ele>3.521</ele>
        <time>2019-11-06T11:59:41.001Z</time>
      </trkpt>
      <trkpt lat="46.35593" lon="-1.44013">
        <ele>6.517</ele>
        <time>2019-11-06T12:00:11.001Z</time>
      </trkpt>
      <trkpt lat="46.3565" lon="-1.44176">
        <ele>6.171</ele>
        <time>2019-11-06T12:00:44.001Z</time>
      </trkpt>
      <trkpt lat="46.35709" lon="-1.44326">
        <ele>6.292</ele>
        <time>2019-11-06T12:01:14.001Z</time>
      </trkpt>
      <trkpt lat="46.35787" lon="-1.44483">
        <ele>3.974</ele>
        <time>2019-11-06T12:01:47.001Z</time>
      </trkpt>
      <trkpt lat="46.35875" lon="-1.4463">
        <ele>5.289</ele>
        <time>2019-11-06T12:02:20.001Z</time>
      </trkpt>
      <trkpt lat="46.3596" lon="-1.44766">
        <ele>9.134</ele>
        <time>2019-11-06T12:02:50.001Z</time>
      </trkpt>
      <trkpt lat="46.36048" lon="-1.44914">
        <ele>10.227</ele>
        <time>2019-11-06T12:03:23.001Z</time>
      </trkpt>
      <trkpt lat="46.36139" lon="-1.45071">
        <ele>4.613</ele>
        <time>2019-11-06T12:03:56.001Z</time>
      </trkpt>
      <trkpt lat="46.36192" lon="-1.45166">
        <ele>4.872</ele>
        <time>2019-11-06T12:04:26.001Z</time>
      </trkpt>
      <trkpt lat="46.36276" lon="-1.45291">
        <ele>4.614</ele>
        <time>2019-11-06T12:04:59.001Z</time>
      </trkpt>
      <trkpt lat="46.36358" lon="-1.45427">
        <ele>4.822</ele>
        <time>2019-11-06T12:05:29.001Z</time>
      </trkpt>
      <trkpt lat="46.36441" lon="-1.45565">
        <ele>5.673</ele>
        <time>2019-11-06T12:06:02Z</time>
      </trkpt>
      <trkpt lat="46.3652" lon="-1.45665">
        <ele>13.756</ele>
        <time>2019-11-06T12:06:38.001Z</time>
      </trkpt>
      <trkpt lat="46.36635" lon="-1.45763">
        <ele>9.539</ele>
        <time>2019-11-06T12:07:08.001Z</time>
      </trkpt>
      <trkpt lat="46.36752" lon="-1.45839">
        <ele>12.969</ele>
        <time>2019-11-06T12:07:41.001Z</time>
      </trkpt>
      <trkpt lat="46.36869" lon="-1.4592">
        <ele>11.543</ele>
        <time>2019-11-06T12:08:14.001Z</time>
      </trkpt>
      <trkpt lat="46.36945" lon="-1.4598">
        <ele>16.246</ele>
        <time>2019-11-06T12:08:44.001Z</time>
      </trkpt>
      <trkpt lat="46.37051" lon="-1.46032">
        <ele>25.069</ele>
        <time>2019-11-06T12:09:17.001Z</time>
      </trkpt>
      <trkpt lat="46.37169" lon="-1.4612">
        <ele>23.09</ele>
        <time>2019-11-06T12:09:47.001Z</time>
      </trkpt>
      <trkpt lat="46.37301" lon="-1.46228">
        <ele>21.448</ele>
        <time>2019-11-06T12:10:20.001Z</time>
      </trkpt>
      <trkpt lat="46.37349" lon="-1.46368">
        <ele>21.549</ele>
        <time>2019-11-06T12:10:53.001Z</time>
      </trkpt>
      <trkpt lat="46.37375" lon="-1.46514">
        <ele>15.875</ele>
        <time>2019-11-06T12:11:23.001Z</time>
      </trkpt>
      <trkpt lat="46.37379" lon="-1.46673">
        <ele>16.926</ele>
        <time>2019-11-06T12:11:56.001Z</time>
      </trkpt>
      <trkpt lat="46.37414" lon="-1.46674">
        <ele>15.809</ele>
        <time>2019-11-06T12:19:44.001Z</time>
      </trkpt>
      <trkpt lat="46.37516" lon="-1.46625">
        <ele>13.431</ele>
        <time>2019-11-06T12:20:17.001Z</time>
      </trkpt>
      <trkpt lat="46.37607" lon="-1.46556">
        <ele>14.605</ele>
        <time>2019-11-06T12:20:50.001Z</time>
      </trkpt>
      <trkpt lat="46.37704" lon="-1.46523">
        <ele>16.711</ele>
        <time>2019-11-06T12:21:20.001Z</time>
      </trkpt>
      <trkpt lat="46.37775" lon="-1.46518">
        <ele>19.911</ele>
        <time>2019-11-06T12:21:53.001Z</time>
      </trkpt>
      <trkpt lat="46.37853" lon="-1.46596">
        <ele>21.086</ele>
        <time>2019-11-06T12:22:26.001Z</time>
      </trkpt>
      <trkpt lat="46.37976" lon="-1.46606">
        <ele>23.139</ele>
        <time>2019-11-06T12:22:56.001Z</time>
      </trkpt>
      <trkpt lat="46.38074" lon="-1.46607">
        <ele>15.952</ele>
        <time>2019-11-06T12:23:29.001Z</time>
      </trkpt>
      <trkpt lat="46.38162" lon="-1.46605">
        <ele>17.628</ele>
        <time>2019-11-06T12:23:59.001Z</time>
      </trkpt>
      <trkpt lat="46.38258" lon="-1.46647">
        <ele>14.47</ele>
        <time>2019-11-06T12:24:32.001Z</time>
      </trkpt>
      <trkpt lat="46.38314" lon="-1.46777">
        <ele>18.861</ele>
        <time>2019-11-06T12:25:05.001Z</time>
      </trkpt>
      <trkpt lat="46.38368" lon="-1.46936">
        <ele>15.175</ele>
        <time>2019-11-06T12:25:35.001Z</time>
      </trkpt>
      <trkpt lat="46.38399" lon="-1.47015">
        <ele>20.73</ele>
        <time>2019-11-06T12:26:08.001Z</time>
      </trkpt>
      <trkpt lat="46.38492" lon="-1.47115">
        <ele>15.988</ele>
        <time>2019-11-06T12:26:41.001Z</time>
      </trkpt>
      <trkpt lat="46.3851" lon="-1.47248">
        <ele>10.996</ele>
        <time>2019-11-06T12:27:11.001Z</time>
      </trkpt>
      <trkpt lat="46.38505" lon="-1.47334">
        <ele>24.589</ele>
        <time>2019-11-06T12:27:44.001Z</time>
      </trkpt>
      <trkpt lat="46.38504" lon="-1.47469">
        <ele>21.224</ele>
        <time>2019-11-06T12:28:14.001Z</time>
      </trkpt>
      <trkpt lat="46.38453" lon="-1.47777">
        <ele>18.777</ele>
        <time>2019-11-06T12:28:47.001Z</time>
      </trkpt>
      <trkpt lat="46.38446" lon="-1.47962">
        <ele>16.729</ele>
        <time>2019-11-06T12:29:20.001Z</time>
      </trkpt>
      <trkpt lat="46.38447" lon="-1.48119">
        <ele>14.958</ele>
        <time>2019-11-06T12:29:50.001Z</time>
      </trkpt>
      <trkpt lat="46.38574" lon="-1.48203">
        <ele>19.123</ele>
        <time>2019-11-06T12:30:23.001Z</time>
      </trkpt>
      <trkpt lat="46.38674" lon="-1.48294">
        <ele>21.905</ele>
        <time>2019-11-06T12:30:53.001Z</time>
      </trkpt>
      <trkpt lat="46.38743" lon="-1.48449">
        <ele>18.328</ele>
        <time>2019-11-06T12:31:26.001Z</time>
      </trkpt>
      <trkpt lat="46.38824" lon="-1.4857">
        <ele>19.261</ele>
        <time>2019-11-06T12:31:59.001Z</time>
      </trkpt>
      <trkpt lat="46.38845" lon="-1.48785">
        <ele>14.189</ele>
        <time>2019-11-06T12:32:29.001Z</time>
      </trkpt>
      <trkpt lat="46.38862" lon="-1.48992">
        <ele>12.287</ele>
        <time>2019-11-06T12:33:02Z</time>
      </trkpt>
      <trkpt lat="46.38922" lon="-1.49109">
        <ele>12.865</ele>
        <time>2019-11-06T12:33:35.001Z</time>
      </trkpt>
      <trkpt lat="46.38973" lon="-1.4898">
        <ele>15.341</ele>
        <time>2019-11-06T12:34:05.001Z</time>
      </trkpt>
      <trkpt lat="46.39015" lon="-1.48852">
        <ele>19.681</ele>
        <time>2019-11-06T12:34:38.001Z</time>
      </trkpt>
      <trkpt lat="46.39044" lon="-1.4878">
        <ele>20.452</ele>
        <time>2019-11-06T12:35:08.001Z</time>
      </trkpt>
      <trkpt lat="46.39096" lon="-1.48659">
        <ele>18.868</ele>
        <time>2019-11-06T12:35:41.001Z</time>
      </trkpt>
      <trkpt lat="46.39144" lon="-1.48577">
        <ele>18.454</ele>
        <time>2019-11-06T12:36:14.001Z</time>
      </trkpt>
      <trkpt lat="46.39227" lon="-1.48546">
        <ele>14.566</ele>
        <time>2019-11-06T12:36:44.001Z</time>
      </trkpt>
      <trkpt lat="46.39278" lon="-1.48685">
        <ele>9.126</ele>
        <time>2019-11-06T12:37:17.001Z</time>
      </trkpt>
      <trkpt lat="46.39298" lon="-1.48791">
        <ele>13.284</ele>
        <time>2019-11-06T12:37:50.001Z</time>
      </trkpt>
      <trkpt lat="46.39413" lon="-1.48861">
        <ele>17.473</ele>
        <time>2019-11-06T12:38:20.001Z</time>
      </trkpt>
      <trkpt lat="46.39523" lon="-1.48902">
        <ele>15.097</ele>
        <time>2019-11-06T12:38:53.001Z</time>
      </trkpt>
      <trkpt lat="46.3962" lon="-1.48948">
        <ele>11.847</ele>
        <time>2019-11-06T12:39:23.001Z</time>
      </trkpt>
      <trkpt lat="46.39721" lon="-1.48853">
        <ele>12.945</ele>
        <time>2019-11-06T12:39:56.001Z</time>
      </trkpt>
      <trkpt lat="46.3984" lon="-1.48829">
        <ele>15.752</ele>
        <time>2019-11-06T12:40:29.001Z</time>
      </trkpt>
      <trkpt lat="46.39906" lon="-1.48702">
        <ele>15.931</ele>
        <time>2019-11-06T12:40:59.001Z</time>
      </trkpt>
      <trkpt lat="46.39987" lon="-1.48612">
        <ele>16.708</ele>
        <time>2019-11-06T12:41:32.001Z</time>
      </trkpt>
      <trkpt lat="46.40108" lon="-1.48613">
        <ele>15.703</ele>
        <time>2019-11-06T12:42:02Z</time>
      </trkpt>
      <trkpt lat="46.4016" lon="-1.48681">
        <ele>14.864</ele>
        <time>2019-11-06T12:42:38.001Z</time>
      </trkpt>
      <trkpt lat="46.40208" lon="-1.48752">
        <ele>17.653</ele>
        <time>2019-11-06T12:43:20.001Z</time>
      </trkpt>
      <trkpt lat="46.40282" lon="-1.48905">
        <ele>20.613</ele>
        <time>2019-11-06T12:43:50.001Z</time>
      </trkpt>
      <trkpt lat="46.40391" lon="-1.49062">
        <ele>15.612</ele>
        <time>2019-11-06T12:44:23.001Z</time>
      </trkpt>
      <trkpt lat="46.40468" lon="-1.48961">
        <ele>15.55</ele>
        <time>2019-11-06T12:44:56.001Z</time>
      </trkpt>
      <trkpt lat="46.40566" lon="-1.49042">
        <ele>14.721</ele>
        <time>2019-11-06T12:45:26.001Z</time>
      </trkpt>
      <trkpt lat="46.40649" lon="-1.49126">
        <ele>14.109</ele>
        <time>2019-11-06T12:45:59.001Z</time>
      </trkpt>
      <trkpt lat="46.40739" lon="-1.49206">
        <ele>13.904</ele>
        <time>2019-11-06T12:46:29.001Z</time>
      </trkpt>
      <trkpt lat="46.40757" lon="-1.49318">
        <ele>14.612</ele>
        <time>2019-11-06T12:47:02Z</time>
      </trkpt>
      <trkpt lat="46.40698" lon="-1.49405">
        <ele>19.224</ele>
        <time>2019-11-06T12:47:35.001Z</time>
      </trkpt>
      <trkpt lat="46.40592" lon="-1.49521">
        <ele>17.711</ele>
        <time>2019-11-06T12:48:05.001Z</time>
      </trkpt>
      <trkpt lat="46.40511" lon="-1.49665">
        <ele>12.49</ele>
        <time>2019-11-06T12:48:38.001Z</time>
      </trkpt>
      <trkpt lat="46.40427" lon="-1.49809">
        <ele>17.468</ele>
        <time>2019-11-06T12:49:08.001Z</time>
      </trkpt>
      <trkpt lat="46.40367" lon="-1.49957">
        <ele>15.131</ele>
        <time>2019-11-06T12:49:41.001Z</time>
      </trkpt>
      <trkpt lat="46.40344" lon="-1.50061">
        <ele>17.305</ele>
        <time>2019-11-06T12:50:20.001Z</time>
      </trkpt>
      <trkpt lat="46.40399" lon="-1.50114">
        <ele>22.064</ele>
        <time>2019-11-06T12:50:59.001Z</time>
      </trkpt>
      <trkpt lat="46.40503" lon="-1.50214">
        <ele>19.642</ele>
        <time>2019-11-06T12:51:35.001Z</time>
      </trkpt>
      <trkpt lat="46.40542" lon="-1.50254">
        <ele>25.916</ele>
        <time>2019-11-06T12:52:20.001Z</time>
      </trkpt>
      <trkpt lat="46.40568" lon="-1.50275">
        <ele>27.954</ele>
        <time>2019-11-06T12:53:08.001Z</time>
      </trkpt>
      <trkpt lat="46.40671" lon="-1.50398">
        <ele>28.792</ele>
        <time>2019-11-06T12:53:41.001Z</time>
      </trkpt>
      <trkpt lat="46.40743" lon="-1.5037">
        <ele>25.627</ele>
        <time>2019-11-06T12:54:11.001Z</time>
      </trkpt>
      <trkpt lat="46.40832" lon="-1.50322">
        <ele>27.649</ele>
        <time>2019-11-06T12:54:44.001Z</time>
      </trkpt>
      <trkpt lat="46.40886" lon="-1.50294">
        <ele>27.685</ele>
        <time>2019-11-06T12:55:23.001Z</time>
      </trkpt>
      <trkpt lat="46.40936" lon="-1.50261">
        <ele>28.168</ele>
        <time>2019-11-06T12:56:05.001Z</time>
      </trkpt>
      <trkpt lat="46.40998" lon="-1.5023">
        <ele>27.401</ele>
        <time>2019-11-06T12:56:50.001Z</time>
      </trkpt>
      <trkpt lat="46.41044" lon="-1.50236">
        <ele>29.612</ele>
        <time>2019-11-06T12:58:02Z</time>
      </trkpt>
      <trkpt lat="46.41029" lon="-1.50309">
        <ele>29.122</ele>
        <time>2019-11-06T12:58:32.001Z</time>
      </trkpt>
      <trkpt lat="46.41035" lon="-1.5046">
        <ele>31.1</ele>
        <time>2019-11-06T12:59:05.001Z</time>
      </trkpt>
      <trkpt lat="46.4109" lon="-1.50618">
        <ele>39.605</ele>
        <time>2019-11-06T12:59:35.001Z</time>
      </trkpt>
      <trkpt lat="46.41096" lon="-1.50756">
        <ele>25.828</ele>
        <time>2019-11-06T13:00:08.001Z</time>
      </trkpt>
      <trkpt lat="46.41096" lon="-1.50927">
        <ele>27.221</ele>
        <time>2019-11-06T13:00:41.001Z</time>
      </trkpt>
      <trkpt lat="46.41091" lon="-1.5104">
        <ele>26.311</ele>
        <time>2019-11-06T13:01:11.001Z</time>
      </trkpt>
      <trkpt lat="46.4115" lon="-1.51157">
        <ele>31.703</ele>
        <time>2019-11-06T13:01:44.001Z</time>
      </trkpt>
      <trkpt lat="46.41225" lon="-1.51276">
        <ele>38.019</ele>
        <time>2019-11-06T13:02:14.001Z</time>
      </trkpt>
      <trkpt lat="46.41319" lon="-1.51419">
        <ele>34.933</ele>
        <time>2019-11-06T13:02:47.001Z</time>
      </trkpt>
      <trkpt lat="46.41354" lon="-1.51587">
        <ele>15.626</ele>
        <time>2019-11-06T13:03:20.001Z</time>
      </trkpt>
      <trkpt lat="46.41373" lon="-1.51764">
        <ele>15.171</ele>
        <time>2019-11-06T13:03:50.001Z</time>
      </trkpt>
      <trkpt lat="46.41357" lon="-1.51974">
        <ele>14.131</ele>
        <time>2019-11-06T13:04:23.001Z</time>
      </trkpt>
      <trkpt lat="46.41335" lon="-1.52183">
        <ele>12.863</ele>
        <time>2019-11-06T13:04:56.001Z</time>
      </trkpt>
      <trkpt lat="46.41311" lon="-1.52418">
        <ele>9.451</ele>
        <time>2019-11-06T13:05:26.001Z</time>
      </trkpt>
      <trkpt lat="46.41305" lon="-1.52595">
        <ele>11.206</ele>
        <time>2019-11-06T13:05:59.001Z</time>
      </trkpt>
      <trkpt lat="46.41258" lon="-1.52767">
        <ele>11.087</ele>
        <time>2019-11-06T13:06:29.001Z</time>
      </trkpt>
      <trkpt lat="46.41251" lon="-1.52995">
        <ele>15.559</ele>
        <time>2019-11-06T13:07:02Z</time>
      </trkpt>
      <trkpt lat="46.41235" lon="-1.53226">
        <ele>14.827</ele>
        <time>2019-11-06T13:07:35.001Z</time>
      </trkpt>
      <trkpt lat="46.41149" lon="-1.53424">
        <ele>10.048</ele>
        <time>2019-11-06T13:08:05.001Z</time>
      </trkpt>
      <trkpt lat="46.41103" lon="-1.53681">
        <ele>9.205</ele>
        <time>2019-11-06T13:08:38.001Z</time>
      </trkpt>
      <trkpt lat="46.41064" lon="-1.53916">
        <ele>10.312</ele>
        <time>2019-11-06T13:09:11.001Z</time>
      </trkpt>
      <trkpt lat="46.41041" lon="-1.54023">
        <ele>7.105</ele>
        <time>2019-11-06T13:10:32.001Z</time>
      </trkpt>
      <trkpt lat="46.40993" lon="-1.54212">
        <ele>7.476</ele>
        <time>2019-11-06T13:11:05.001Z</time>
      </trkpt>
      <trkpt lat="46.40931" lon="-1.54386">
        <ele>2.611</ele>
        <time>2019-11-06T13:11:35.001Z</time>
      </trkpt>
      <trkpt lat="46.40982" lon="-1.54564">
        <ele>5.083</ele>
        <time>2019-11-06T13:12:08.001Z</time>
      </trkpt>
      <trkpt lat="46.41069" lon="-1.54706">
        <ele>7.48</ele>
        <time>2019-11-06T13:12:41.001Z</time>
      </trkpt>
      <trkpt lat="46.41132" lon="-1.5484">
        <ele>10.348</ele>
        <time>2019-11-06T13:13:11.001Z</time>
      </trkpt>
      <trkpt lat="46.41229" lon="-1.54919">
        <ele>9.126</ele>
        <time>2019-11-06T13:13:44.001Z</time>
      </trkpt>
      <trkpt lat="46.41358" lon="-1.54886">
        <ele>9.796</ele>
        <time>2019-11-06T13:14:14.001Z</time>
      </trkpt>
      <trkpt lat="46.4142" lon="-1.54927">
        <ele>16.516</ele>
        <time>2019-11-06T13:14:47.001Z</time>
      </trkpt>
      <trkpt lat="46.41434" lon="-1.55101">
        <ele>11.798</ele>
        <time>2019-11-06T13:15:20.001Z</time>
      </trkpt>
      <trkpt lat="46.41458" lon="-1.55263">
        <ele>11.67</ele>
        <time>2019-11-06T13:15:50.001Z</time>
      </trkpt>
      <trkpt lat="46.4149" lon="-1.55438">
        <ele>11.073</ele>
        <time>2019-11-06T13:16:23.001Z</time>
      </trkpt>
      <trkpt lat="46.41513" lon="-1.55628">
        <ele>14.174</ele>
        <time>2019-11-06T13:16:56.001Z</time>
      </trkpt>
      <trkpt lat="46.41534" lon="-1.55838">
        <ele>12.015</ele>
        <time>2019-11-06T13:17:26.001Z</time>
      </trkpt>
      <trkpt lat="46.41533" lon="-1.55999">
        <ele>10.962</ele>
        <time>2019-11-06T13:17:59.001Z</time>
      </trkpt>
      <trkpt lat="46.41519" lon="-1.56162">
        <ele>11.991</ele>
        <time>2019-11-06T13:18:29.001Z</time>
      </trkpt>
      <trkpt lat="46.41499" lon="-1.56352">
        <ele>11.735</ele>
        <time>2019-11-06T13:19:02Z</time>
      </trkpt>
      <trkpt lat="46.41505" lon="-1.56549">
        <ele>14.117</ele>
        <time>2019-11-06T13:19:35.001Z</time>
      </trkpt>
      <trkpt lat="46.41528" lon="-1.56732">
        <ele>15.356</ele>
        <time>2019-11-06T13:20:05.001Z</time>
      </trkpt>
      <trkpt lat="46.4159" lon="-1.56941">
        <ele>14.189</ele>
        <time>2019-11-06T13:20:38.001Z</time>
      </trkpt>
      <trkpt lat="46.41672" lon="-1.57134">
        <ele>13.016</ele>
        <time>2019-11-06T13:21:11.001Z</time>
      </trkpt>
      <trkpt lat="46.41727" lon="-1.57276">
        <ele>12.523</ele>
        <time>2019-11-06T13:21:41.001Z</time>
      </trkpt>
      <trkpt lat="46.41719" lon="-1.57268">
        <ele>11.684</ele>
        <time>2019-11-06T13:45:05.001Z</time>
      </trkpt>
      <trkpt lat="46.41779" lon="-1.57342">
        <ele>15.002</ele>
        <time>2019-11-06T13:45:44.001Z</time>
      </trkpt>
      <trkpt lat="46.41771" lon="-1.57462">
        <ele>15.199</ele>
        <time>2019-11-06T13:46:17.001Z</time>
      </trkpt>
      <trkpt lat="46.41838" lon="-1.5754">
        <ele>14.511</ele>
        <time>2019-11-06T13:46:50.001Z</time>
      </trkpt>
      <trkpt lat="46.41955" lon="-1.57472">
        <ele>11.641</ele>
        <time>2019-11-06T13:47:20.001Z</time>
      </trkpt>
      <trkpt lat="46.42036" lon="-1.57479">
        <ele>11.89</ele>
        <time>2019-11-06T13:47:53.001Z</time>
      </trkpt>
      <trkpt lat="46.42052" lon="-1.57665">
        <ele>11.332</ele>
        <time>2019-11-06T13:48:23.001Z</time>
      </trkpt>
      <trkpt lat="46.42048" lon="-1.57865">
        <ele>9.44</ele>
        <time>2019-11-06T13:48:56.001Z</time>
      </trkpt>
      <trkpt lat="46.42036" lon="-1.58083">
        <ele>10.21</ele>
        <time>2019-11-06T13:49:29.001Z</time>
      </trkpt>
      <trkpt lat="46.4198" lon="-1.58229">
        <ele>9.674</ele>
        <time>2019-11-06T13:49:59.001Z</time>
      </trkpt>
      <trkpt lat="46.41883" lon="-1.58359">
        <ele>11.866</ele>
        <time>2019-11-06T13:50:32.001Z</time>
      </trkpt>
      <trkpt lat="46.41885" lon="-1.58593">
        <ele>16.038</ele>
        <time>2019-11-06T13:51:05.001Z</time>
      </trkpt>
      <trkpt lat="46.41855" lon="-1.58748">
        <ele>13.415</ele>
        <time>2019-11-06T13:51:35.001Z</time>
      </trkpt>
      <trkpt lat="46.41854" lon="-1.5895">
        <ele>16.082</ele>
        <time>2019-11-06T13:52:08.001Z</time>
      </trkpt>
      <trkpt lat="46.41882" lon="-1.59148">
        <ele>15.257</ele>
        <time>2019-11-06T13:52:38.001Z</time>
      </trkpt>
      <trkpt lat="46.41918" lon="-1.59359">
        <ele>19.503</ele>
        <time>2019-11-06T13:53:11.001Z</time>
      </trkpt>
      <trkpt lat="46.41923" lon="-1.59575">
        <ele>17.584</ele>
        <time>2019-11-06T13:53:44.001Z</time>
      </trkpt>
      <trkpt lat="46.4191" lon="-1.59779">
        <ele>11.587</ele>
        <time>2019-11-06T13:54:14.001Z</time>
      </trkpt>
      <trkpt lat="46.41967" lon="-1.5996">
        <ele>12.411</ele>
        <time>2019-11-06T13:54:47.001Z</time>
      </trkpt>
      <trkpt lat="46.4206" lon="-1.60141">
        <ele>13.423</ele>
        <time>2019-11-06T13:55:20.001Z</time>
      </trkpt>
      <trkpt lat="46.42155" lon="-1.60305">
        <ele>15.51</ele>
        <time>2019-11-06T13:55:50.001Z</time>
      </trkpt>
      <trkpt lat="46.42232" lon="-1.60119">
        <ele>4.758</ele>
        <time>2019-11-06T13:56:23.001Z</time>
      </trkpt>
      <trkpt lat="46.42268" lon="-1.59945">
        <ele>11.981</ele>
        <time>2019-11-06T13:56:53.001Z</time>
      </trkpt>
      <trkpt lat="46.42311" lon="-1.59739">
        <ele>11.964</ele>
        <time>2019-11-06T13:57:26.001Z</time>
      </trkpt>
      <trkpt lat="46.42314" lon="-1.59615">
        <ele>12.092</ele>
        <time>2019-11-06T13:57:59.001Z</time>
      </trkpt>
      <trkpt lat="46.42369" lon="-1.59515">
        <ele>19.036</ele>
        <time>2019-11-06T13:58:29.001Z</time>
      </trkpt>
      <trkpt lat="46.42464" lon="-1.59414">
        <ele>21.924</ele>
        <time>2019-11-06T13:59:02Z</time>
      </trkpt>
      <trkpt lat="46.42551" lon="-1.59301">
        <ele>15.507</ele>
        <time>2019-11-06T13:59:32.001Z</time>
      </trkpt>
      <trkpt lat="46.42633" lon="-1.59168">
        <ele>18.78</ele>
        <time>2019-11-06T14:00:05.001Z</time>
      </trkpt>
      <trkpt lat="46.42695" lon="-1.58999">
        <ele>21.187</ele>
        <time>2019-11-06T14:00:38.001Z</time>
      </trkpt>
      <trkpt lat="46.42741" lon="-1.58855">
        <ele>19.357</ele>
        <time>2019-11-06T14:01:08.001Z</time>
      </trkpt>
      <trkpt lat="46.42854" lon="-1.58891">
        <ele>13.67</ele>
        <time>2019-11-06T14:01:41.001Z</time>
      </trkpt>
      <trkpt lat="46.42992" lon="-1.59099">
        <ele>0.893</ele>
        <time>2019-11-06T14:02:14.001Z</time>
      </trkpt>
      <trkpt lat="46.43058" lon="-1.59244">
        <ele>1</ele>
        <time>2019-11-06T14:02:44.001Z</time>
      </trkpt>
      <trkpt lat="46.43157" lon="-1.59366">
        <ele>1.4</ele>
        <time>2019-11-06T14:03:17.001Z</time>
      </trkpt>
      <trkpt lat="46.43232" lon="-1.59494">
        <ele>2.496</ele>
        <time>2019-11-06T14:03:47.001Z</time>
      </trkpt>
      <trkpt lat="46.43322" lon="-1.59627">
        <ele>2.94</ele>
        <time>2019-11-06T14:04:20.001Z</time>
      </trkpt>
      <trkpt lat="46.43374" lon="-1.59792">
        <ele>2.853</ele>
        <time>2019-11-06T14:04:53.001Z</time>
      </trkpt>
      <trkpt lat="46.43409" lon="-1.59939">
        <ele>1.188</ele>
        <time>2019-11-06T14:05:23.001Z</time>
      </trkpt>
      <trkpt lat="46.43453" lon="-1.60098">
        <ele>0.401</ele>
        <time>2019-11-06T14:05:56.001Z</time>
      </trkpt>
      <trkpt lat="46.43511" lon="-1.60206">
        <ele>2.517</ele>
        <time>2019-11-06T14:06:26.001Z</time>
      </trkpt>
      <trkpt lat="46.43571" lon="-1.60304">
        <ele>5.992</ele>
        <time>2019-11-06T14:06:59.001Z</time>
      </trkpt>
      <trkpt lat="46.43667" lon="-1.60295">
        <ele>0.634</ele>
        <time>2019-11-06T14:07:32.001Z</time>
      </trkpt>
      <trkpt lat="46.4372" lon="-1.60361">
        <ele>4.642</ele>
        <time>2019-11-06T14:08:02Z</time>
      </trkpt>
      <trkpt lat="46.43842" lon="-1.60295">
        <ele>5.094</ele>
        <time>2019-11-06T14:08:35.001Z</time>
      </trkpt>
      <trkpt lat="46.4397" lon="-1.60208">
        <ele>0.927</ele>
        <time>2019-11-06T14:09:08.001Z</time>
      </trkpt>
      <trkpt lat="46.44098" lon="-1.60225">
        <ele>1.898</ele>
        <time>2019-11-06T14:09:38.001Z</time>
      </trkpt>
      <trkpt lat="46.4411" lon="-1.60441">
        <ele>0.652</ele>
        <time>2019-11-06T14:10:11.001Z</time>
      </trkpt>
      <trkpt lat="46.44178" lon="-1.60606">
        <ele>2.964</ele>
        <time>2019-11-06T14:10:41.001Z</time>
      </trkpt>
      <trkpt lat="46.44184" lon="-1.60744">
        <ele>4.294</ele>
        <time>2019-11-06T14:11:14.001Z</time>
      </trkpt>
      <trkpt lat="46.44165" lon="-1.60893">
        <ele>3.917</ele>
        <time>2019-11-06T14:11:47.001Z</time>
      </trkpt>
      <trkpt lat="46.44189" lon="-1.61103">
        <ele>0.423</ele>
        <time>2019-11-06T14:12:17.001Z</time>
      </trkpt>
      <trkpt lat="46.44123" lon="-1.61289">
        <ele>1.839</ele>
        <time>2019-11-06T14:12:50.001Z</time>
      </trkpt>
      <trkpt lat="46.44157" lon="-1.61473">
        <ele>3.609</ele>
        <time>2019-11-06T14:13:23.001Z</time>
      </trkpt>
      <trkpt lat="46.44153" lon="-1.61632">
        <ele>3.612</ele>
        <time>2019-11-06T14:13:53.001Z</time>
      </trkpt>
      <trkpt lat="46.44111" lon="-1.61857">
        <ele>3</ele>
        <time>2019-11-06T14:14:26.001Z</time>
      </trkpt>
      <trkpt lat="46.44102" lon="-1.62073">
        <ele>1.543</ele>
        <time>2019-11-06T14:14:56.001Z</time>
      </trkpt>
      <trkpt lat="46.44155" lon="-1.62262">
        <ele>3.428</ele>
        <time>2019-11-06T14:15:29.001Z</time>
      </trkpt>
      <trkpt lat="46.44167" lon="-1.62501">
        <ele>3.1</ele>
        <time>2019-11-06T14:16:02Z</time>
      </trkpt>
      <trkpt lat="46.44202" lon="-1.62677">
        <ele>4.2</ele>
        <time>2019-11-06T14:16:32.001Z</time>
      </trkpt>
      <trkpt lat="46.44158" lon="-1.62846">
        <ele>2.722</ele>
        <time>2019-11-06T14:17:05.001Z</time>
      </trkpt>
      <trkpt lat="46.44235" lon="-1.62932">
        <ele>0.832</ele>
        <time>2019-11-06T14:17:35.001Z</time>
      </trkpt>
      <trkpt lat="46.44355" lon="-1.62959">
        <ele>3.6</ele>
        <time>2019-11-06T14:18:08.001Z</time>
      </trkpt>
      <trkpt lat="46.44452" lon="-1.63071">
        <ele>3.3</ele>
        <time>2019-11-06T14:18:41.001Z</time>
      </trkpt>
      <trkpt lat="46.4455" lon="-1.63196">
        <ele>0.144</ele>
        <time>2019-11-06T14:19:11.001Z</time>
      </trkpt>
      <trkpt lat="46.44667" lon="-1.63245">
        <ele>2.873</ele>
        <time>2019-11-06T14:19:44.001Z</time>
      </trkpt>
      <trkpt lat="46.44748" lon="-1.63312">
        <ele>7.949</ele>
        <time>2019-11-06T14:20:17.001Z</time>
      </trkpt>
      <trkpt lat="46.44782" lon="-1.63432">
        <ele>5.201</ele>
        <time>2019-11-06T14:20:47.001Z</time>
      </trkpt>
      <trkpt lat="46.44813" lon="-1.63556">
        <ele>4.096</ele>
        <time>2019-11-06T14:21:20.001Z</time>
      </trkpt>
      <trkpt lat="46.4479" lon="-1.63712">
        <ele>7.466</ele>
        <time>2019-11-06T14:21:50.001Z</time>
      </trkpt>
      <trkpt lat="46.44753" lon="-1.63894">
        <ele>6.99</ele>
        <time>2019-11-06T14:22:23.001Z</time>
      </trkpt>
      <trkpt lat="46.44714" lon="-1.64071">
        <ele>7.428</ele>
        <time>2019-11-06T14:22:56.001Z</time>
      </trkpt>
      <trkpt lat="46.44671" lon="-1.64195">
        <ele>8.42</ele>
        <time>2019-11-06T14:23:26.001Z</time>
      </trkpt>
      <trkpt lat="46.44676" lon="-1.6441">
        <ele>2.073</ele>
        <time>2019-11-06T14:23:59.001Z</time>
      </trkpt>
      <trkpt lat="46.44609" lon="-1.64474">
        <ele>2.3</ele>
        <time>2019-11-06T14:24:32.001Z</time>
      </trkpt>
      <trkpt lat="46.44585" lon="-1.64619">
        <ele>2.4</ele>
        <time>2019-11-06T14:25:02Z</time>
      </trkpt>
      <trkpt lat="46.44616" lon="-1.64762">
        <ele>0.991</ele>
        <time>2019-11-06T14:25:35.001Z</time>
      </trkpt>
      <trkpt lat="46.44637" lon="-1.64861">
        <ele>1.033</ele>
        <time>2019-11-06T14:26:08.001Z</time>
      </trkpt>
      <trkpt lat="46.4453" lon="-1.64866">
        <ele>3.043</ele>
        <time>2019-11-06T14:26:41.001Z</time>
      </trkpt>
      <trkpt lat="46.44411" lon="-1.6483">
        <ele>2.614</ele>
        <time>2019-11-06T14:27:14.001Z</time>
      </trkpt>
      <trkpt lat="46.44309" lon="-1.64829">
        <ele>3.518</ele>
        <time>2019-11-06T14:27:44.001Z</time>
      </trkpt>
      <trkpt lat="46.44271" lon="-1.65">
        <ele>2.426</ele>
        <time>2019-11-06T14:28:17.001Z</time>
      </trkpt>
      <trkpt lat="46.44212" lon="-1.65134">
        <ele>2.68</ele>
        <time>2019-11-06T14:28:47.001Z</time>
      </trkpt>
      <trkpt lat="46.44094" lon="-1.65237">
        <ele>3.151</ele>
        <time>2019-11-06T14:29:20.001Z</time>
      </trkpt>
      <trkpt lat="46.44027" lon="-1.65287">
        <ele>10.822</ele>
        <time>2019-11-06T14:29:53.001Z</time>
      </trkpt>
      <trkpt lat="46.44024" lon="-1.65396">
        <ele>15.774</ele>
        <time>2019-11-06T14:30:23.001Z</time>
      </trkpt>
      <trkpt lat="46.44009" lon="-1.65551">
        <ele>20.108</ele>
        <time>2019-11-06T14:30:56.001Z</time>
      </trkpt>
      <trkpt lat="46.44011" lon="-1.65735">
        <ele>19.515</ele>
        <time>2019-11-06T14:31:29.001Z</time>
      </trkpt>
      <trkpt lat="46.44024" lon="-1.65896">
        <ele>24.839</ele>
        <time>2019-11-06T14:32:02Z</time>
      </trkpt>
      <trkpt lat="46.44038" lon="-1.66073">
        <ele>24.383</ele>
        <time>2019-11-06T14:32:35.001Z</time>
      </trkpt>
      <trkpt lat="46.43999" lon="-1.66252">
        <ele>10.969</ele>
        <time>2019-11-06T14:33:05.001Z</time>
      </trkpt>
      <trkpt lat="46.44118" lon="-1.66373">
        <ele>4.584</ele>
        <time>2019-11-06T14:33:38.001Z</time>
      </trkpt>
      <trkpt lat="46.44211" lon="-1.66456">
        <ele>7.842</ele>
        <time>2019-11-06T14:34:11.001Z</time>
      </trkpt>
      <trkpt lat="46.44239" lon="-1.66572">
        <ele>9.178</ele>
        <time>2019-11-06T14:34:41.001Z</time>
      </trkpt>
      <trkpt lat="46.44295" lon="-1.66697">
        <ele>8.604</ele>
        <time>2019-11-06T14:35:14.001Z</time>
      </trkpt>
      <trkpt lat="46.44367" lon="-1.66815">
        <ele>8.366</ele>
        <time>2019-11-06T14:35:47.001Z</time>
      </trkpt>
      <trkpt lat="46.44436" lon="-1.66945">
        <ele>10.388</ele>
        <time>2019-11-06T14:36:17.001Z</time>
      </trkpt>
      <trkpt lat="46.44455" lon="-1.67113">
        <ele>11.963</ele>
        <time>2019-11-06T14:36:50.001Z</time>
      </trkpt>
      <trkpt lat="46.44516" lon="-1.67251">
        <ele>13.349</ele>
        <time>2019-11-06T14:37:20.001Z</time>
      </trkpt>
      <trkpt lat="46.44565" lon="-1.67364">
        <ele>12.584</ele>
        <time>2019-11-06T14:37:53.001Z</time>
      </trkpt>
      <trkpt lat="46.44632" lon="-1.67503">
        <ele>15.036</ele>
        <time>2019-11-06T14:38:26.001Z</time>
      </trkpt>
      <trkpt lat="46.44679" lon="-1.67611">
        <ele>19.571</ele>
        <time>2019-11-06T14:38:56.001Z</time>
      </trkpt>
      <trkpt lat="46.44706" lon="-1.67757">
        <ele>22.274</ele>
        <time>2019-11-06T14:39:29.001Z</time>
      </trkpt>
      <trkpt lat="46.44696" lon="-1.6789">
        <ele>20.782</ele>
        <time>2019-11-06T14:39:59.001Z</time>
      </trkpt>
      <trkpt lat="46.44703" lon="-1.68022">
        <ele>18.295</ele>
        <time>2019-11-06T14:40:32.001Z</time>
      </trkpt>
      <trkpt lat="46.44714" lon="-1.6815">
        <ele>21.076</ele>
        <time>2019-11-06T14:41:05.001Z</time>
      </trkpt>
      <trkpt lat="46.44748" lon="-1.68304">
        <ele>21.628</ele>
        <time>2019-11-06T14:41:35.001Z</time>
      </trkpt>
      <trkpt lat="46.44841" lon="-1.68467">
        <ele>21.002</ele>
        <time>2019-11-06T14:42:08.001Z</time>
      </trkpt>
      <trkpt lat="46.4497" lon="-1.68583">
        <ele>16.952</ele>
        <time>2019-11-06T14:42:41.001Z</time>
      </trkpt>
      <trkpt lat="46.45068" lon="-1.68726">
        <ele>11.754</ele>
        <time>2019-11-06T14:43:11.001Z</time>
      </trkpt>
      <trkpt lat="46.45114" lon="-1.68977">
        <ele>11.845</ele>
        <time>2019-11-06T14:43:44.001Z</time>
      </trkpt>
      <trkpt lat="46.4517" lon="-1.69209">
        <ele>8.839</ele>
        <time>2019-11-06T14:44:14.001Z</time>
      </trkpt>
      <trkpt lat="46.45218" lon="-1.69407">
        <ele>7.949</ele>
        <time>2019-11-06T14:44:47.001Z</time>
      </trkpt>
      <trkpt lat="46.4525" lon="-1.69549">
        <ele>8.995</ele>
        <time>2019-11-06T14:45:20.001Z</time>
      </trkpt>
      <trkpt lat="46.45257" lon="-1.69661">
        <ele>12.318</ele>
        <time>2019-11-06T14:45:50.001Z</time>
      </trkpt>
      <trkpt lat="46.4522" lon="-1.69809">
        <ele>15.923</ele>
        <time>2019-11-06T14:46:23.001Z</time>
      </trkpt>
      <trkpt lat="46.4521" lon="-1.69947">
        <ele>21.185</ele>
        <time>2019-11-06T14:46:56.001Z</time>
      </trkpt>
      <trkpt lat="46.45198" lon="-1.70075">
        <ele>26.399</ele>
        <time>2019-11-06T14:47:26.001Z</time>
      </trkpt>
      <trkpt lat="46.45222" lon="-1.70174">
        <ele>19.74</ele>
        <time>2019-11-06T14:47:59.001Z</time>
      </trkpt>
      <trkpt lat="46.45222" lon="-1.70281">
        <ele>21.326</ele>
        <time>2019-11-06T14:48:29.001Z</time>
      </trkpt>
      <trkpt lat="46.45239" lon="-1.70433">
        <ele>23.782</ele>
        <time>2019-11-06T14:49:02Z</time>
      </trkpt>
      <trkpt lat="46.45274" lon="-1.70613">
        <ele>24.789</ele>
        <time>2019-11-06T14:49:35.001Z</time>
      </trkpt>
      <trkpt lat="46.45307" lon="-1.7081">
        <ele>26.515</ele>
        <time>2019-11-06T14:50:05.001Z</time>
      </trkpt>
      <trkpt lat="46.45337" lon="-1.70989">
        <ele>18</ele>
        <time>2019-11-06T14:50:38.001Z</time>
      </trkpt>
      <trkpt lat="46.45348" lon="-1.71033">
        <ele>14.539</ele>
        <time>2019-11-06T14:51:47.001Z</time>
      </trkpt>
      <trkpt lat="46.45419" lon="-1.71146">
        <ele>10.568</ele>
        <time>2019-11-06T14:52:20.001Z</time>
      </trkpt>
      <trkpt lat="46.45509" lon="-1.7118">
        <ele>9.091</ele>
        <time>2019-11-06T14:52:53.001Z</time>
      </trkpt>
      <trkpt lat="46.45598" lon="-1.71205">
        <ele>10.228</ele>
        <time>2019-11-06T14:53:23.001Z</time>
      </trkpt>
      <trkpt lat="46.45697" lon="-1.71255">
        <ele>15.699</ele>
        <time>2019-11-06T14:53:56.001Z</time>
      </trkpt>
      <trkpt lat="46.45825" lon="-1.71363">
        <ele>8.97</ele>
        <time>2019-11-06T14:54:29.001Z</time>
      </trkpt>
      <trkpt lat="46.45905" lon="-1.71445">
        <ele>5.877</ele>
        <time>2019-11-06T14:54:59.001Z</time>
      </trkpt>
      <trkpt lat="46.45939" lon="-1.7152">
        <ele>8.573</ele>
        <time>2019-11-06T14:55:32.001Z</time>
      </trkpt>
      <trkpt lat="46.45985" lon="-1.71597">
        <ele>13.8</ele>
        <time>2019-11-06T14:56:02Z</time>
      </trkpt>
      <trkpt lat="46.46042" lon="-1.71685">
        <ele>16.355</ele>
        <time>2019-11-06T14:56:35.001Z</time>
      </trkpt>
      <trkpt lat="46.461" lon="-1.71772">
        <ele>19.405</ele>
        <time>2019-11-06T14:57:08.001Z</time>
      </trkpt>
      <trkpt lat="46.46169" lon="-1.71834">
        <ele>24.818</ele>
        <time>2019-11-06T14:57:38.001Z</time>
      </trkpt>
      <trkpt lat="46.46263" lon="-1.71968">
        <ele>26.886</ele>
        <time>2019-11-06T14:58:11.001Z</time>
      </trkpt>
      <trkpt lat="46.46313" lon="-1.72113">
        <ele>33.304</ele>
        <time>2019-11-06T14:58:41.001Z</time>
      </trkpt>
      <trkpt lat="46.46344" lon="-1.72282">
        <ele>29.128</ele>
        <time>2019-11-06T14:59:14.001Z</time>
      </trkpt>
      <trkpt lat="46.46365" lon="-1.72459">
        <ele>33.429</ele>
        <time>2019-11-06T14:59:47.001Z</time>
      </trkpt>
      <trkpt lat="46.46386" lon="-1.72639">
        <ele>36.29</ele>
        <time>2019-11-06T15:00:17.001Z</time>
      </trkpt>
      <trkpt lat="46.46393" lon="-1.72892">
        <ele>26.801</ele>
        <time>2019-11-06T15:00:50.001Z</time>
      </trkpt>
      <trkpt lat="46.46483" lon="-1.73158">
        <ele>12.766</ele>
        <time>2019-11-06T15:01:23.001Z</time>
      </trkpt>
      <trkpt lat="46.46586" lon="-1.73203">
        <ele>9.257</ele>
        <time>2019-11-06T15:01:53.001Z</time>
      </trkpt>
      <trkpt lat="46.4663" lon="-1.7336">
        <ele>11.883</ele>
        <time>2019-11-06T15:02:26.001Z</time>
      </trkpt>
      <trkpt lat="46.46664" lon="-1.7352">
        <ele>13.55</ele>
        <time>2019-11-06T15:02:56.001Z</time>
      </trkpt>
      <trkpt lat="46.46753" lon="-1.73681">
        <ele>10.117</ele>
        <time>2019-11-06T15:03:29.001Z</time>
      </trkpt>
      <trkpt lat="46.46838" lon="-1.73807">
        <ele>6.237</ele>
        <time>2019-11-06T15:04:02Z</time>
      </trkpt>
      <trkpt lat="46.46839" lon="-1.73924">
        <ele>11.313</ele>
        <time>2019-11-06T15:04:32.001Z</time>
      </trkpt>
      <trkpt lat="46.46858" lon="-1.74068">
        <ele>11.23</ele>
        <time>2019-11-06T15:05:05.001Z</time>
      </trkpt>
      <trkpt lat="46.46947" lon="-1.74175">
        <ele>10.161</ele>
        <time>2019-11-06T15:05:38.001Z</time>
      </trkpt>
      <trkpt lat="46.47042" lon="-1.74266">
        <ele>9.238</ele>
        <time>2019-11-06T15:06:08.001Z</time>
      </trkpt>
      <trkpt lat="46.4713" lon="-1.74407">
        <ele>11.032</ele>
        <time>2019-11-06T15:06:41.001Z</time>
      </trkpt>
      <trkpt lat="46.47204" lon="-1.74545">
        <ele>10.36</ele>
        <time>2019-11-06T15:07:11.001Z</time>
      </trkpt>
      <trkpt lat="46.4728" lon="-1.74674">
        <ele>10.739</ele>
        <time>2019-11-06T15:07:44.001Z</time>
      </trkpt>
      <trkpt lat="46.47364" lon="-1.74822">
        <ele>9.986</ele>
        <time>2019-11-06T15:08:17.001Z</time>
      </trkpt>
      <trkpt lat="46.474" lon="-1.74975">
        <ele>11.541</ele>
        <time>2019-11-06T15:08:47.001Z</time>
      </trkpt>
      <trkpt lat="46.47438" lon="-1.75152">
        <ele>11.607</ele>
        <time>2019-11-06T15:09:20.001Z</time>
      </trkpt>
      <trkpt lat="46.47451" lon="-1.7533">
        <ele>9.611</ele>
        <time>2019-11-06T15:09:50.001Z</time>
      </trkpt>
      <trkpt lat="46.475" lon="-1.75493">
        <ele>9.22</ele>
        <time>2019-11-06T15:10:23.001Z</time>
      </trkpt>
      <trkpt lat="46.47551" lon="-1.75645">
        <ele>10.486</ele>
        <time>2019-11-06T15:10:56.001Z</time>
      </trkpt>
      <trkpt lat="46.47625" lon="-1.75745">
        <ele>9.065</ele>
        <time>2019-11-06T15:11:26.001Z</time>
      </trkpt>
      <trkpt lat="46.47743" lon="-1.75895">
        <ele>5.997</ele>
        <time>2019-11-06T15:11:59.001Z</time>
      </trkpt>
      <trkpt lat="46.47823" lon="-1.76017">
        <ele>8.864</ele>
        <time>2019-11-06T15:12:32.001Z</time>
      </trkpt>
      <trkpt lat="46.47921" lon="-1.76031">
        <ele>11.667</ele>
        <time>2019-11-06T15:13:02Z</time>
      </trkpt>
      <trkpt lat="46.48058" lon="-1.76067">
        <ele>6.653</ele>
        <time>2019-11-06T15:13:35.001Z</time>
      </trkpt>
      <trkpt lat="46.48149" lon="-1.76172">
        <ele>7.015</ele>
        <time>2019-11-06T15:14:05.001Z</time>
      </trkpt>
      <trkpt lat="46.48245" lon="-1.76286">
        <ele>10.036</ele>
        <time>2019-11-06T15:14:38.001Z</time>
      </trkpt>
      <trkpt lat="46.48341" lon="-1.76398">
        <ele>12.527</ele>
        <time>2019-11-06T15:15:11.001Z</time>
      </trkpt>
      <trkpt lat="46.48428" lon="-1.76499">
        <ele>11.525</ele>
        <time>2019-11-06T15:15:41.001Z</time>
      </trkpt>
      <trkpt lat="46.48508" lon="-1.76577">
        <ele>14.785</ele>
        <time>2019-11-06T15:16:14.001Z</time>
      </trkpt>
      <trkpt lat="46.48605" lon="-1.76671">
        <ele>16.965</ele>
        <time>2019-11-06T15:16:47.001Z</time>
      </trkpt>
      <trkpt lat="46.48694" lon="-1.7676">
        <ele>20.149</ele>
        <time>2019-11-06T15:17:17.001Z</time>
      </trkpt>
      <trkpt lat="46.48797" lon="-1.76858">
        <ele>23.782</ele>
        <time>2019-11-06T15:17:50.001Z</time>
      </trkpt>
      <trkpt lat="46.48897" lon="-1.76905">
        <ele>19.293</ele>
        <time>2019-11-06T15:18:20.001Z</time>
      </trkpt>
      <trkpt lat="46.48949" lon="-1.76792">
        <ele>12.472</ele>
        <time>2019-11-06T15:18:53.001Z</time>
      </trkpt>
      <trkpt lat="46.4903" lon="-1.76892">
        <ele>29.12</ele>
        <time>2019-11-06T15:19:26.001Z</time>
      </trkpt>
      <trkpt lat="46.49102" lon="-1.76982">
        <ele>32.626</ele>
        <time>2019-11-06T15:19:56.001Z</time>
      </trkpt>
      <trkpt lat="46.49185" lon="-1.77084">
        <ele>33.077</ele>
        <time>2019-11-06T15:20:29.001Z</time>
      </trkpt>
      <trkpt lat="46.49263" lon="-1.7721">
        <ele>22.096</ele>
        <time>2019-11-06T15:20:59.001Z</time>
      </trkpt>
      <trkpt lat="46.49334" lon="-1.77357">
        <ele>26.912</ele>
        <time>2019-11-06T15:21:32.001Z</time>
      </trkpt>
      <trkpt lat="46.49407" lon="-1.77501">
        <ele>31.07</ele>
        <time>2019-11-06T15:22:05.001Z</time>
      </trkpt>
      <trkpt lat="46.49485" lon="-1.77608">
        <ele>42.051</ele>
        <time>2019-11-06T15:22:35.001Z</time>
      </trkpt>
      <trkpt lat="46.49564" lon="-1.77718">
        <ele>39.135</ele>
        <time>2019-11-06T15:23:08.001Z</time>
      </trkpt>
      <trkpt lat="46.49589" lon="-1.77795">
        <ele>30.238</ele>
        <time>2019-11-06T15:23:44.001Z</time>
      </trkpt>
      <trkpt lat="46.49577" lon="-1.77966">
        <ele>18.584</ele>
        <time>2019-11-06T15:24:14.001Z</time>
      </trkpt>
      <trkpt lat="46.49594" lon="-1.78159">
        <ele>12.89</ele>
        <time>2019-11-06T15:24:47.001Z</time>
      </trkpt>
      <trkpt lat="46.49664" lon="-1.78235">
        <ele>16.601</ele>
        <time>2019-11-06T15:25:17.001Z</time>
      </trkpt>
      <trkpt lat="46.49719" lon="-1.78197">
        <ele>9.214</ele>
        <time>2019-11-06T15:25:53.001Z</time>
      </trkpt>
      <trkpt lat="46.49732" lon="-1.78154">
        <ele>12.434</ele>
        <time>2019-11-06T15:26:44.001Z</time>
      </trkpt>
      <trkpt lat="46.49713" lon="-1.78169">
        <ele>17.649</ele>
        <time>2019-11-06T15:27:20.001Z</time>
      </trkpt>
      <trkpt lat="46.49731" lon="-1.78187">
        <ele>19.079</ele>
        <time>2019-11-06T15:30:17.001Z</time>
      </trkpt>
      <trkpt lat="46.49749" lon="-1.78184">
        <ele>17.709</ele>
        <time>2019-11-06T15:31:56.001Z</time>
      </trkpt>
      <trkpt lat="46.49776" lon="-1.78171">
        <ele>20.294</ele>
        <time>2019-11-06T15:33:53.001Z</time>
      </trkpt>
      <trkpt lat="46.49751" lon="-1.78171">
        <ele>18.928</ele>
        <time>2019-11-06T15:36:11.001Z</time>
      </trkpt>
      <trkpt lat="46.49749" lon="-1.78171">
        <ele>21.23</ele>
        <time>2019-11-06T15:38:14.001Z</time>
      </trkpt>
      <trkpt lat="46.49751" lon="-1.78169">
        <ele>24.154</ele>
        <time>2019-11-06T15:40:26.001Z</time>
      </trkpt>
      <trkpt lat="46.49755" lon="-1.78177">
        <ele>26.957</ele>
        <time>2019-11-06T15:41:11.001Z</time>
      </trkpt>
      <trkpt lat="46.49737" lon="-1.78197">
        <ele>27.796</ele>
        <time>2019-11-06T15:42:02Z</time>
      </trkpt>
      <trkpt lat="46.497" lon="-1.78237">
        <ele>19.646</ele>
        <time>2019-11-06T15:43:11.001Z</time>
      </trkpt>
      <trkpt lat="46.49639" lon="-1.78223">
        <ele>17.331</ele>
        <time>2019-11-06T15:43:44.001Z</time>
      </trkpt>
      <trkpt lat="46.49733" lon="-1.78125">
        <ele>11.926</ele>
        <time>2019-11-06T15:44:17.001Z</time>
      </trkpt>
      <trkpt lat="46.49763" lon="-1.77947">
        <ele>0.751</ele>
        <time>2019-11-06T15:44:50.001Z</time>
      </trkpt>
      <trkpt lat="46.49805" lon="-1.77796">
        <ele>4.403</ele>
        <time>2019-11-06T15:45:20.001Z</time>
      </trkpt>
      <trkpt lat="46.49747" lon="-1.77721">
        <ele>9.394</ele>
        <time>2019-11-06T15:45:53.001Z</time>
      </trkpt>
      <trkpt lat="46.4966" lon="-1.77743">
        <ele>7.959</ele>
        <time>2019-11-06T15:46:26.001Z</time>
      </trkpt>
      <trkpt lat="46.49595" lon="-1.77728">
        <ele>13.969</ele>
        <time>2019-11-06T15:46:56.001Z</time>
      </trkpt>
      <trkpt lat="46.49598" lon="-1.7749">
        <ele>13.791</ele>
        <time>2019-11-06T15:47:29.001Z</time>
      </trkpt>
      <trkpt lat="46.49601" lon="-1.77344">
        <ele>16.97</ele>
        <time>2019-11-06T15:48:02Z</time>
      </trkpt>
      <trkpt lat="46.49609" lon="-1.77189">
        <ele>13.816</ele>
        <time>2019-11-06T15:48:35.001Z</time>
      </trkpt>
      <trkpt lat="46.49603" lon="-1.77181">
        <ele>15.803</ele>
        <time>2019-11-06T15:53:11.001Z</time>
      </trkpt>
      <trkpt lat="46.49621" lon="-1.77202">
        <ele>12.704</ele>
        <time>2019-11-06T15:56:05.001Z</time>
      </trkpt>
      <trkpt lat="46.49634" lon="-1.77196">
        <ele>8.168</ele>
        <time>2019-11-06T15:57:17.001Z</time>
      </trkpt>
      <trkpt lat="46.49624" lon="-1.77194">
        <ele>5.372</ele>
        <time>2019-11-06T16:02:02Z</time>
      </trkpt>
      <trkpt lat="46.496" lon="-1.77191">
        <ele>10.1</ele>
        <time>2019-11-06T16:02:44.001Z</time>
      </trkpt>
      <trkpt lat="46.49616" lon="-1.77195">
        <ele>9.9</ele>
        <time>2019-11-06T16:06:47.001Z</time>
      </trkpt>
      <trkpt lat="46.49608" lon="-1.77182">
        <ele>10.1</ele>
        <time>2019-11-06T16:13:35.001Z</time>
      </trkpt>
      <trkpt lat="46.49626" lon="-1.77195">
        <ele>9.8</ele>
        <time>2019-11-06T16:29:02Z</time>
      </trkpt>
      <trkpt lat="46.49608" lon="-1.77197">
        <ele>1.473</ele>
        <time>2019-11-06T16:29:35.001Z</time>
      </trkpt>
      <trkpt lat="46.49607" lon="-1.77189">
        <ele>9.375</ele>
        <time>2019-11-06T16:34:23.001Z</time>
      </trkpt>
      <trkpt lat="46.49607" lon="-1.77197">
        <ele>17.7</ele>
        <time>2019-11-06T16:35:29.001Z</time>
      </trkpt>
      <trkpt lat="46.49607" lon="-1.77215">
        <ele>20.29</ele>
        <time>2019-11-06T16:36:59.001Z</time>
      </trkpt>
      <trkpt lat="46.49614" lon="-1.77192">
        <ele>11.602</ele>
        <time>2019-11-06T16:38:35.001Z</time>
      </trkpt>
      <trkpt lat="46.49649" lon="-1.77154">
        <ele>10.486</ele>
        <time>2019-11-06T16:39:26.001Z</time>
      </trkpt>
    </trkseg>
  </trk>
</gpx>